Observation data for Palo Duro Canyon State Park Floor on 01/11/2018      Previous  Date  Next       Current Mesonet Observations  Soil Data  Daily Summary Page  Observations in Plain Language
KPD2 110600Z 33002KT 10/M02 A2945 RMK A01 T01021022  RH  042%=      5-min Rain = 0
KPD2 110601Z 27002KT 10/M02 A2945 RMK A01 T01011023  RH  042%=      5-min Rain = 0
KPD2 110602Z 34004KT 10/M02 A2945 RMK A01 T01001023  RH  042%=      5-min Rain = 0
KPD2 110603Z 05002KT 10/M02 A2945 RMK A01 T00991022  RH  042%=      5-min Rain = 0
KPD2 110604Z 02003KT 10/M02 A2945 RMK A01 T01001022  RH  042%=      5-min Rain = 0
KPD2 110605Z 00005KT 10/M02 A2945 RMK A01 T01001022  RH  043%=      5-min Rain = 0
KPD2 110606Z 27004G9KT 10/M02 A2945 RMK A01 T00991022  RH  043%=      5-min Rain = 0
KPD2 110607Z 29006G12KT 10/M02 A2945 RMK A01 T00991022  RH  043%=      5-min Rain = 0
KPD2 110608Z 29007KT 10/M02 A2945 RMK A01 T01001022  RH  042%=      5-min Rain = 0
KPD2 110609Z 28003KT 10/M02 A2946 RMK A01 T01031021  RH  042%=      5-min Rain = 0
KPD2 110610Z 26002KT 10/M02 A2946 RMK A01 T01041021  RH  042%=      5-min Rain = 0
KPD2 110611Z 19004KT 10/M02 A2946 RMK A01 T01041022  RH  041%=      5-min Rain = 0
KPD2 110612Z 31004KT 10/M02 A2945 RMK A01 T01041022  RH  041%=      5-min Rain = 0
KPD2 110613Z 31008KT 10/M02 A2946 RMK A01 T01041022  RH  041%=      5-min Rain = 0
KPD2 110614Z 29007G12KT 10/M02 A2946 RMK A01 T01041022  RH  041%=      5-min Rain = 0
KPD2 110615Z 28005G11KT 10/M02 A2945 RMK A01 T01041022  RH  041%=      5-min Rain = 0
KPD2 110616Z 36006KT 11/M02 A2945 RMK A01 T01051022  RH  041%=      5-min Rain = 0
KPD2 110617Z 30007KT 11/M02 A2945 RMK A01 T01051022  RH  041%=      5-min Rain = 0
KPD2 110618Z 29009KT 11/M02 A2945 RMK A01 T01061022  RH  041%=      5-min Rain = 0
KPD2 110619Z 35005KT 11/M02 A2945 RMK A01 T01071021  RH  041%=      5-min Rain = 0
KPD2 110620Z 33008KT 11/M02 A2945 RMK A01 T01071022  RH  041%=      5-min Rain = 0
KPD2 110621Z 12003KT 11/M02 A2945 RMK A01 T01061022  RH  041%=      5-min Rain = 0
KPD2 110622Z 35006KT 11/M02 A2945 RMK A01 T01071022  RH  040%=      5-min Rain = 0
KPD2 110623Z 33004KT 11/M02 A2945 RMK A01 T01071022  RH  040%=      5-min Rain = 0
KPD2 110624Z 34005KT 11/M02 A2945 RMK A01 T01071022  RH  040%=      5-min Rain = 0
KPD2 110625Z 35008KT 11/M02 A2946 RMK A01 T01071022  RH  040%=      5-min Rain = 0
KPD2 110626Z 33006KT 11/M02 A2946 RMK A01 T01061022  RH  041%=      5-min Rain = 0
KPD2 110627Z 34008KT 11/M02 A2946 RMK A01 T01061022  RH  041%=      5-min Rain = 0
KPD2 110628Z 35008KT 11/M02 A2946 RMK A01 T01051022  RH  041%=      5-min Rain = 0
KPD2 110629Z 32006KT 11/M02 A2946 RMK A01 T01061022  RH  041%=      5-min Rain = 0
KPD2 110630Z 32007KT 11/M02 A2946 RMK A01 T01061022  RH  041%=      5-min Rain = 0
KPD2 110631Z 32009KT 11/M02 A2946 RMK A01 T01061022  RH  041%=      5-min Rain = 0
KPD2 110632Z 31011KT 11/M02 A2946 RMK A01 T01061022  RH  041%=      5-min Rain = 0
KPD2 110633Z 32010KT 11/M02 A2946 RMK A01 T01061021  RH  041%=      5-min Rain = 0
KPD2 110634Z 30011G16KT 11/M02 A2946 RMK A01 T01061022  RH  041%=      5-min Rain = 0
KPD2 110635Z 29010KT 11/M02 A2946 RMK A01 T01061022  RH  041%=      5-min Rain = 0
KPD2 110636Z 32007KT 11/M02 A2945 RMK A01 T01071021  RH  041%=      5-min Rain = 0
KPD2 110637Z 34009KT 11/M02 A2945 RMK A01 T01061021  RH  041%=      5-min Rain = 0
KPD2 110638Z 33009KT 11/M02 A2945 RMK A01 T01061017  RH  042%=      5-min Rain = 0
KPD2 110639Z 31008G13KT 11/M01 A2946 RMK A01 T01051013  RH  044%=      5-min Rain = 0
KPD2 110640Z 34010G15KT 10/M01 A2946 RMK A01 T01031006  RH  047%=      5-min Rain = 0
KPD2 110641Z 34008G13KT 10/M01 A2946 RMK A01 T01021005  RH  048%=      5-min Rain = 0
KPD2 110642Z 35008KT 10/M00 A2945 RMK A01 T01011004  RH  048%=      5-min Rain = 0
KPD2 110643Z 35009KT 10/00 A2945 RMK A01 T00990003  RH  051%=      5-min Rain = 0
KPD2 110644Z 35010KT 10/00 A2945 RMK A01 T00970003  RH  052%=      5-min Rain = 0
KPD2 110645Z 34010KT 10/01 A2946 RMK A01 T00960005  RH  053%=      5-min Rain = 0
KPD2 110646Z 34012KT 09/01 A2946 RMK A01 T00940005  RH  054%=      5-min Rain = 0
KPD2 110647Z 34010KT 09/00 A2946 RMK A01 T009400-0  RH  052%=      5-min Rain = 0
KPD2 110648Z 34010KT 10/00 A2946 RMK A01 T00960001  RH  052%=      5-min Rain = 0
KPD2 110649Z 33007KT 10/00 A2945 RMK A01 T00970001  RH  051%=      5-min Rain = 0
KPD2 110650Z 33008KT 10/00 A2946 RMK A01 T00960003  RH  052%=      5-min Rain = 0
KPD2 110651Z 32009KT 10/00 A2946 RMK A01 T00960002  RH  052%=      5-min Rain = 0
KPD2 110652Z 34009KT 10/00 A2946 RMK A01 T00970002  RH  051%=      5-min Rain = 0
KPD2 110653Z 32010KT 10/00 A2946 RMK A01 T00980002  RH  051%=      5-min Rain = 0
KPD2 110654Z 32012KT 10/00 A2946 RMK A01 T00990003  RH  051%=      5-min Rain = 0
KPD2 110655Z 32011KT 10/00 A2946 RMK A01 T01000004  RH  052%=      5-min Rain = 0
KPD2 110656Z 32011KT 10/01 A2946 RMK A01 T01000006  RH  052%=      5-min Rain = 0
KPD2 110657Z 32010KT 10/00 A2946 RMK A01 T01000003  RH  051%=      5-min Rain = 0
KPD2 110658Z 32010KT 10/00 A2946 RMK A01 T01010003  RH  051%=      5-min Rain = 0
KPD2 110659Z 32014KT 10/00 A2946 RMK A01 T01010002  RH  050%=      5-min Rain = 0
KPD2 110700Z 32013G20KT 10/00 A2946 RMK A01 T01020001  RH  050%=      5-min Rain = 0
KPD2 110701Z 32014KT 10/00 A2946 RMK A01 T01030001  RH  049%=      5-min Rain = 0
KPD2 110702Z 32014KT 11/00 A2947 RMK A01 T01050001  RH  049%=      5-min Rain = 0
KPD2 110703Z 32014G19KT 11/00 A2947 RMK A01 T010600-0  RH  048%=      5-min Rain = 0
KPD2 110704Z 32016KT 11/M00 A2947 RMK A01 T01071001  RH  047%=      5-min Rain = 0
KPD2 110705Z 31014KT 11/M00 A2947 RMK A01 T01081002  RH  047%=      5-min Rain = 0
KPD2 110706Z 32015KT 11/M00 A2947 RMK A01 T01091002  RH  046%=      5-min Rain = 0
KPD2 110707Z 31015G22KT 11/M00 A2947 RMK A01 T01091003  RH  046%=      5-min Rain = 0
KPD2 110708Z 31016KT 11/M00 A2947 RMK A01 T01091004  RH  046%=      5-min Rain = 0
KPD2 110709Z 31018KT 11/M01 A2947 RMK A01 T01101005  RH  045%=      5-min Rain = 0
KPD2 110710Z 31016G21KT 11/M01 A2948 RMK A01 T01111005  RH  045%=      5-min Rain = 0
KPD2 110711Z 32019G24KT 11/M01 A2948 RMK A01 T01111006  RH  044%=      5-min Rain = 0
KPD2 110712Z 32016G21KT 11/M01 A2948 RMK A01 T01121007  RH  044%=      5-min Rain = 0
KPD2 110713Z 33015G21KT 11/M01 A2948 RMK A01 T01121007  RH  044%=      5-min Rain = 0
KPD2 110714Z 33016G21KT 11/M01 A2949 RMK A01 T01121006  RH  044%=      5-min Rain = 0
KPD2 110715Z 32016G25KT 11/M01 A2949 RMK A01 T01121007  RH  044%=      5-min Rain = 0
KPD2 110716Z 33016KT 11/M01 A2949 RMK A01 T01131008  RH  043%=      5-min Rain = 0
KPD2 110717Z 32017KT 11/M01 A2949 RMK A01 T01131009  RH  043%=      5-min Rain = 0
KPD2 110718Z 31018KT 11/M01 A2949 RMK A01 T01131010  RH  042%=      5-min Rain = 0
KPD2 110719Z 33019KT 11/M01 A295 RMK A01 T01141010  RH  042%=      5-min Rain = 0
KPD2 110720Z 33017KT 11/M01 A295 RMK A01 T01141011  RH  042%=      5-min Rain = 0
KPD2 110721Z 33021G26KT 12/M01 A295 RMK A01 T01151011  RH  042%=      5-min Rain = 0
KPD2 110722Z 33019G29KT 12/M01 A295 RMK A01 T01161012  RH  041%=      5-min Rain = 0
KPD2 110723Z 33018G27KT 12/M01 A295 RMK A01 T01161012  RH  041%=      5-min Rain = 0
KPD2 110724Z 33016G24KT 12/M01 A295 RMK A01 T01161012  RH  041%=      5-min Rain = 0
KPD2 110725Z 32017G22KT 12/M01 A2951 RMK A01 T01161012  RH  041%=      5-min Rain = 0
KPD2 110726Z 33021G28KT 12/M01 A2951 RMK A01 T01151012  RH  041%=      5-min Rain = 0
KPD2 110727Z 32016G22KT 12/M01 A2951 RMK A01 T01151012  RH  041%=      5-min Rain = 0
KPD2 110728Z 32013G23KT 12/M01 A2951 RMK A01 T01151012  RH  041%=      5-min Rain = 0
KPD2 110729Z 33012G18KT 11/M01 A2951 RMK A01 T01141012  RH  041%=      5-min Rain = 0
KPD2 110730Z 32014G19KT 11/M01 A2952 RMK A01 T01141012  RH  041%=      5-min Rain = 0
KPD2 110731Z 31015KT 11/M01 A2952 RMK A01 T01131013  RH  042%=      5-min Rain = 0
KPD2 110732Z 32020KT 11/M01 A2951 RMK A01 T01131013  RH  042%=      5-min Rain = 0
KPD2 110733Z 33013G21KT 11/M01 A2952 RMK A01 T01141013  RH  041%=      5-min Rain = 0
KPD2 110734Z 33015KT 11/M01 A2952 RMK A01 T01141013  RH  041%=      5-min Rain = 0
KPD2 110735Z 32014G19KT 11/M01 A2952 RMK A01 T01131013  RH  041%=      5-min Rain = 0
KPD2 110736Z 32016G22KT 11/M01 A2952 RMK A01 T01131013  RH  042%=      5-min Rain = 0
KPD2 110737Z 34016G23KT 11/M01 A2952 RMK A01 T01131013  RH  042%=      5-min Rain = 0
KPD2 110738Z 33016G22KT 11/M01 A2953 RMK A01 T01131013  RH  042%=      5-min Rain = 0
KPD2 110739Z 32012KT 11/M01 A2953 RMK A01 T01121013  RH  042%=      5-min Rain = 0
KPD2 110740Z 33015KT 11/M01 A2953 RMK A01 T01121013  RH  042%=      5-min Rain = 0
KPD2 110741Z 32015G21KT 11/M01 A2953 RMK A01 T01121014  RH  042%=      5-min Rain = 0
KPD2 110742Z 33017KT 11/M01 A2953 RMK A01 T01121013  RH  042%=      5-min Rain = 0
KPD2 110743Z 33016G23KT 11/M01 A2953 RMK A01 T01121013  RH  042%=      5-min Rain = 0
KPD2 110744Z 33011KT 11/M01 A2953 RMK A01 T01121013  RH  042%=      5-min Rain = 0
KPD2 110745Z 32013G18KT 11/M01 A2953 RMK A01 T01101013  RH  042%=      5-min Rain = 0
KPD2 110746Z 31015KT 11/M01 A2953 RMK A01 T01101013  RH  042%=      5-min Rain = 0
KPD2 110747Z 32013G19KT 11/M01 A2953 RMK A01 T01101012  RH  042%=      5-min Rain = 0
KPD2 110748Z 33014G20KT 11/M01 A2953 RMK A01 T01101013  RH  043%=      5-min Rain = 0
KPD2 110749Z 32016KT 11/M01 A2953 RMK A01 T01091013  RH  043%=      5-min Rain = 0
KPD2 110750Z 32016KT 11/M01 A2954 RMK A01 T01091012  RH  043%=      5-min Rain = 0
KPD2 110751Z 33012KT 11/M01 A2954 RMK A01 T01091011  RH  043%=      5-min Rain = 0
KPD2 110752Z 32011G17KT 11/M01 A2954 RMK A01 T01091011  RH  043%=      5-min Rain = 0
KPD2 110753Z 32018KT 11/M01 A2954 RMK A01 T01091008  RH  044%=      5-min Rain = 0
KPD2 110754Z 32012KT 11/M01 A2954 RMK A01 T01091006  RH  045%=      5-min Rain = 0
KPD2 110755Z 32013G18KT 11/M01 A2954 RMK A01 T01091005  RH  045%=      5-min Rain = 0
KPD2 110756Z 33015KT 11/M00 A2954 RMK A01 T01091004  RH  046%=      5-min Rain = 0
KPD2 110757Z 32011KT 11/M00 A2954 RMK A01 T01081003  RH  046%=      5-min Rain = 0
KPD2 110758Z 32014KT 11/M00 A2954 RMK A01 T01081001  RH  047%=      5-min Rain = 0
KPD2 110759Z 32016G23KT 11/00 A2954 RMK A01 T01080000  RH  047%=      5-min Rain = 0
KPD2 110800Z 32014G21KT 11/00 A2955 RMK A01 T01090002  RH  048%=      5-min Rain = 0
KPD2 110801Z 32012KT 11/00 A2955 RMK A01 T01090003  RH  048%=      5-min Rain = 0
KPD2 110802Z 33014G25KT 11/00 A2955 RMK A01 T01090003  RH  048%=      5-min Rain = 0
KPD2 110803Z 33014G22KT 11/00 A2955 RMK A01 T01090004  RH  048%=      5-min Rain = 0
KPD2 110804Z 32013G19KT 11/01 A2955 RMK A01 T01090005  RH  049%=      5-min Rain = 0
KPD2 110805Z 31012G18KT 11/01 A2955 RMK A01 T01090006  RH  049%=      5-min Rain = 0
KPD2 110806Z 31015G21KT 11/01 A2955 RMK A01 T01090007  RH  049%=      5-min Rain = 0
KPD2 110807Z 32016G24KT 11/01 A2955 RMK A01 T01090008  RH  050%=      5-min Rain = 0
KPD2 110808Z 31015G20KT 11/01 A2955 RMK A01 T01090009  RH  050%=      5-min Rain = 0
KPD2 110809Z 32015G24KT 11/01 A2955 RMK A01 T01090010  RH  050%=      5-min Rain = 0
KPD2 110810Z 32012G20KT 11/01 A2955 RMK A01 T01090011  RH  051%=      5-min Rain = 0
KPD2 110811Z 33015G21KT 11/01 A2955 RMK A01 T01090012  RH  051%=      5-min Rain = 0
KPD2 110812Z 31013G19KT 11/01 A2955 RMK A01 T01100014  RH  052%=      5-min Rain = 0
KPD2 110813Z 31020G27KT 11/02 A2955 RMK A01 T01100016  RH  052%=      5-min Rain = 0
KPD2 110814Z 32015G20KT 11/02 A2956 RMK A01 T01110018  RH  053%=      5-min Rain = 0
KPD2 110815Z 32014G20KT 11/02 A2956 RMK A01 T01110019  RH  053%=      5-min Rain = 0
KPD2 110816Z 34015G25KT 11/02 A2956 RMK A01 T01110020  RH  053%=      5-min Rain = 0
KPD2 110817Z 31017G25KT 11/02 A2956 RMK A01 T01120023  RH  054%=      5-min Rain = 0
KPD2 110818Z 32018G24KT 11/03 A2956 RMK A01 T01130025  RH  055%=      5-min Rain = 0
KPD2 110819Z 33019G33KT 11/03 A2956 RMK A01 T01130027  RH  055%=      5-min Rain = 0
KPD2 110820Z 34021G29KT 11/03 A2956 RMK A01 T01130029  RH  056%=      5-min Rain = 0
KPD2 110821Z 33028G39KT 11/03 A2957 RMK A01 T01130031  RH  057%=      5-min Rain = 0
KPD2 110822Z 33021G28KT 11/03 A2957 RMK A01 T01140033  RH  058%=      5-min Rain = 0
KPD2 110823Z 32024G29KT 11/03 A2957 RMK A01 T01130032  RH  058%=      5-min Rain = 0
KPD2 110824Z 34024G33KT 11/03 A2957 RMK A01 T01130032  RH  058%=      5-min Rain = 0
KPD2 110825Z 34019G30KT 11/03 A2957 RMK A01 T01120032  RH  058%=      5-min Rain = 0
KPD2 110826Z 32018G34KT 11/03 A2958 RMK A01 T01110032  RH  058%=      5-min Rain = 0
KPD2 110827Z 32021G29KT 11/03 A2957 RMK A01 T01110031  RH  058%=      5-min Rain = 0
KPD2 110828Z 33021G27KT 11/03 A2958 RMK A01 T01110031  RH  058%=      5-min Rain = 0
KPD2 110829Z 31021G35KT 11/03 A2958 RMK A01 T01110030  RH  057%=      5-min Rain = 0
KPD2 110830Z 33022G30KT 11/03 A2958 RMK A01 T01100029  RH  057%=      5-min Rain = 0
KPD2 110831Z 33022G32KT 11/03 A2959 RMK A01 T01100028  RH  057%=      5-min Rain = 0
KPD2 110832Z 33025G34KT 11/03 A2959 RMK A01 T01090026  RH  057%=      5-min Rain = 0
KPD2 110833Z 32020G27KT 11/03 A2959 RMK A01 T01080025  RH  056%=      5-min Rain = 0
KPD2 110834Z 32019G25KT 11/02 A2959 RMK A01 T01070024  RH  056%=      5-min Rain = 0
KPD2 110835Z 33017G25KT 11/02 A2959 RMK A01 T01070024  RH  056%=      5-min Rain = 0
KPD2 110836Z 33022G30KT 11/02 A2959 RMK A01 T01060023  RH  057%=      5-min Rain = 0
KPD2 110837Z 35024G34KT 11/02 A2959 RMK A01 T01050022  RH  057%=      5-min Rain = 0
KPD2 110838Z 33024G34KT 10/02 A2959 RMK A01 T01040022  RH  057%=      5-min Rain = 0
KPD2 110839Z 33026G34KT 10/02 A2959 RMK A01 T01030021  RH  057%=      5-min Rain = 0
KPD2 110840Z 33022G36KT 10/02 A296 RMK A01 T01030021  RH  057%=      5-min Rain = 0
KPD2 110841Z 34019G29KT 10/02 A2959 RMK A01 T01020020  RH  057%=      5-min Rain = 0
KPD2 110842Z 33026G37KT 10/02 A296 RMK A01 T01010020  RH  057%=      5-min Rain = 0
KPD2 110843Z 33021G27KT 10/02 A2959 RMK A01 T01000020  RH  057%=      5-min Rain = 0
KPD2 110844Z 34021G31KT 10/02 A296 RMK A01 T01000019  RH  057%=      5-min Rain = 0
KPD2 110845Z 33024G38KT 10/02 A296 RMK A01 T01000019  RH  057%=      5-min Rain = 0
KPD2 110846Z 33021G27KT 10/02 A296 RMK A01 T01000018  RH  057%=      5-min Rain = 0
KPD2 110847Z 32017G23KT 10/02 A296 RMK A01 T00990018  RH  057%=      5-min Rain = 0
KPD2 110848Z 33017KT 10/02 A296 RMK A01 T00990017  RH  057%=      5-min Rain = 0
KPD2 110849Z 33020G26KT 10/02 A296 RMK A01 T00980017  RH  057%=      5-min Rain = 0
KPD2 110850Z 34017G25KT 10/02 A296 RMK A01 T00980018  RH  057%=      5-min Rain = 0
KPD2 110851Z 35020G30KT 10/02 A296 RMK A01 T00970018  RH  058%=      5-min Rain = 0
KPD2 110852Z 32014G26KT 10/02 A296 RMK A01 T00970019  RH  058%=      5-min Rain = 0
KPD2 110853Z 34017G24KT 10/02 A296 RMK A01 T00960021  RH  059%=      5-min Rain = 0
KPD2 110854Z 34015KT 09/02 A296 RMK A01 T00940023  RH  061%=      5-min Rain = 0
KPD2 110855Z 32012KT 09/03 A296 RMK A01 T00930026  RH  063%=      5-min Rain = 0
KPD2 110856Z 33016G30KT 09/03 A2961 RMK A01 T00920030  RH  065%=      5-min Rain = 0
KPD2 110857Z 32013G19KT 09/03 A296 RMK A01 T00900032  RH  067%=      5-min Rain = 0
KPD2 110858Z 32018KT 09/03 A296 RMK A01 T00870034  RH  069%=      5-min Rain = 0
KPD2 110859Z 31015G20KT 09/04 A296 RMK A01 T00860035  RH  070%=      5-min Rain = 0
KPD2 110900Z 32019G25KT 08/04 A296 RMK A01 T00840035  RH  071%=      5-min Rain = 0
KPD2 110901Z 32015G20KT 08/04 A2961 RMK A01 T00830035  RH  072%=      5-min Rain = 0
KPD2 110902Z 32014KT 08/03 A2961 RMK A01 T00820034  RH  072%=      5-min Rain = 0
KPD2 110903Z 32018G23KT 08/03 A2961 RMK A01 T00810034  RH  072%=      5-min Rain = 0
KPD2 110904Z 31015KT 08/03 A2961 RMK A01 T00810033  RH  072%=      5-min Rain = 0
KPD2 110905Z 32024G36KT 08/03 A2961 RMK A01 T00800032  RH  072%=      5-min Rain = 0
KPD2 110906Z 32017G25KT 08/03 A2961 RMK A01 T00800030  RH  071%=      5-min Rain = 0
KPD2 110907Z 32020G28KT 08/03 A2961 RMK A01 T00790030  RH  071%=      5-min Rain = 0
KPD2 110908Z 32019G30KT 08/03 A2961 RMK A01 T00790029  RH  071%=      5-min Rain = 0
KPD2 110909Z 32016G21KT 08/03 A2961 RMK A01 T00790029  RH  071%=      5-min Rain = 0
KPD2 110910Z 31014G21KT 08/03 A2961 RMK A01 T00780028  RH  071%=      5-min Rain = 0
KPD2 110911Z 31019G29KT 08/03 A2961 RMK A01 T00760027  RH  071%=      5-min Rain = 0
KPD2 110912Z 32021G26KT 08/03 A2962 RMK A01 T00750026  RH  071%=      5-min Rain = 0
KPD2 110913Z 33020KT 08/03 A2962 RMK A01 T00750025  RH  071%=      5-min Rain = 0
KPD2 110914Z 32016G26KT 07/02 A2962 RMK A01 T00730024  RH  071%=      5-min Rain = 0
KPD2 110915Z 32019G27KT 07/02 A2962 RMK A01 T00720023  RH  071%=      5-min Rain = 0
KPD2 110916Z 32024G29KT 07/02 A2962 RMK A01 T00710021  RH  071%=      5-min Rain = 0
KPD2 110917Z 33022G29KT 07/02 A2963 RMK A01 T00700020  RH  070%=      5-min Rain = 0
KPD2 110918Z 32016G24KT 07/02 A2963 RMK A01 T00700019  RH  070%=      5-min Rain = 0
KPD2 110919Z 32025G34KT 07/02 A2963 RMK A01 T00690018  RH  070%=      5-min Rain = 0
KPD2 110920Z 32016G26KT 07/02 A2963 RMK A01 T00690017  RH  070%=      5-min Rain = 0
KPD2 110921Z 31018G25KT 07/02 A2963 RMK A01 T00680016  RH  070%=      5-min Rain = 0
KPD2 110922Z 32017G27KT 07/02 A2963 RMK A01 T00670016  RH  070%=      5-min Rain = 0
KPD2 110923Z 32022G32KT 07/01 A2963 RMK A01 T00660014  RH  069%=      5-min Rain = 0
KPD2 110924Z 32018G24KT 07/01 A2963 RMK A01 T00650013  RH  069%=      5-min Rain = 0
KPD2 110925Z 32021G34KT 06/01 A2963 RMK A01 T00640012  RH  069%=      5-min Rain = 0
KPD2 110926Z 33025G33KT 06/01 A2964 RMK A01 T00630012  RH  070%=      5-min Rain = 0
KPD2 110927Z 32021G26KT 06/01 A2964 RMK A01 T00630012  RH  070%=      5-min Rain = 0
KPD2 110928Z 33019G26KT 06/01 A2964 RMK A01 T00620012  RH  070%=      5-min Rain = 0
KPD2 110929Z 32018G26KT 06/01 A2964 RMK A01 T00620012  RH  070%=      5-min Rain = 0
KPD2 110930Z 32015G26KT 06/01 A2964 RMK A01 T00610011  RH  071%=      5-min Rain = 0
KPD2 110931Z 32018G26KT 06/01 A2964 RMK A01 T00600011  RH  071%=      5-min Rain = 0
KPD2 110932Z 32018KT 06/01 A2964 RMK A01 T00600011  RH  071%=      5-min Rain = 0
KPD2 110933Z 32021G33KT 06/01 A2965 RMK A01 T00590011  RH  071%=      5-min Rain = 0
KPD2 110934Z 32017KT 06/01 A2965 RMK A01 T00590010  RH  071%=      5-min Rain = 0
KPD2 110935Z 32020KT 06/01 A2965 RMK A01 T00580010  RH  071%=      5-min Rain = 0
KPD2 110936Z 33019G25KT 06/01 A2965 RMK A01 T00570009  RH  071%=      5-min Rain = 0
KPD2 110937Z 33020G27KT 06/01 A2965 RMK A01 T00570009  RH  071%=      5-min Rain = 0
KPD2 110938Z 32012G18KT 06/01 A2965 RMK A01 T00560009  RH  072%=      5-min Rain = 0
KPD2 110939Z 31017G25KT 06/01 A2965 RMK A01 T00560009  RH  072%=      5-min Rain = 0
KPD2 110940Z 32019G30KT 06/01 A2965 RMK A01 T00550009  RH  072%=      5-min Rain = 0
KPD2 110941Z 32021G30KT 05/01 A2966 RMK A01 T00540008  RH  072%=      5-min Rain = 0
KPD2 110942Z 33024G37KT 05/01 A2966 RMK A01 T00530005  RH  071%=      5-min Rain = 0
KPD2 110943Z 33022G33KT 05/00 A2966 RMK A01 T00520004  RH  071%=      5-min Rain = 0
KPD2 110944Z 33019G28KT 05/00 A2966 RMK A01 T00500003  RH  071%=      5-min Rain = 0
KPD2 110945Z 33015G24KT 05/00 A2966 RMK A01 T00490003  RH  072%=      5-min Rain = 0
KPD2 110946Z 32018G28KT 05/00 A2966 RMK A01 T00490003  RH  072%=      5-min Rain = 0
KPD2 110947Z 32020G25KT 05/00 A2967 RMK A01 T00480003  RH  072%=      5-min Rain = 0
KPD2 110948Z 32020G26KT 05/00 A2967 RMK A01 T00470002  RH  072%=      5-min Rain = 0
KPD2 110949Z 33020G26KT 05/00 A2967 RMK A01 T00460001  RH  072%=      5-min Rain = 0
KPD2 110950Z 32016G21KT 05/00 A2967 RMK A01 T00450000  RH  072%=      5-min Rain = 0
KPD2 110951Z 32018G27KT 04/M00 A2967 RMK A01 T00441001  RH  072%=      5-min Rain = 0
KPD2 110952Z 32018G31KT 04/M00 A2967 RMK A01 T00431003  RH  072%=      5-min Rain = 0
KPD2 110953Z 33018G26KT 04/M01 A2968 RMK A01 T00411006  RH  071%=      5-min Rain = 0
KPD2 110954Z 33018KT 04/M01 A2968 RMK A01 T00401007  RH  072%=      5-min Rain = 0
KPD2 110955Z 33023G29KT 04/M01 A2968 RMK A01 T00391008  RH  072%=      5-min Rain = 0
KPD2 110956Z 33021G26KT 04/M01 A2968 RMK A01 T00371010  RH  072%=      5-min Rain = 0
KPD2 110957Z 33017G25KT 04/M01 A2969 RMK A01 T00351011  RH  072%=      5-min Rain = 0
KPD2 110958Z 33013G18KT 04/M01 A2969 RMK A01 T00351011  RH  072%=      5-min Rain = 0
KPD2 110959Z 33023G31KT 03/M01 A2969 RMK A01 T00331012  RH  072%=      5-min Rain = 0
KPD2 111000Z 33017G23KT 03/M01 A2969 RMK A01 T00331012  RH  072%=      5-min Rain = 0
KPD2 111001Z 33018G27KT 03/M01 A2969 RMK A01 T00321013  RH  072%=      5-min Rain = 0
KPD2 111002Z 33023G32KT 03/M01 A297 RMK A01 T00311014  RH  072%=      5-min Rain = 0
KPD2 111003Z 33016G24KT 03/M02 A297 RMK A01 T00311015  RH  072%=      5-min Rain = 0
KPD2 111004Z 32017G24KT 03/M02 A2969 RMK A01 T00301015  RH  072%=      5-min Rain = 0
KPD2 111005Z 33022G32KT 03/M02 A297 RMK A01 T00301016  RH  072%=      5-min Rain = 0
KPD2 111006Z 32015G21KT 03/M02 A297 RMK A01 T00291016  RH  072%=      5-min Rain = 0
KPD2 111007Z 34017G26KT 03/M02 A297 RMK A01 T00291017  RH  072%=      5-min Rain = 0
KPD2 111008Z 32013KT 03/M02 A297 RMK A01 T00291016  RH  072%=      5-min Rain = 0
KPD2 111009Z 33013G20KT 03/M02 A2971 RMK A01 T00291016  RH  072%=      5-min Rain = 0
KPD2 111010Z 33016G22KT 03/M02 A2971 RMK A01 T00281016  RH  072%=      5-min Rain = 0
KPD2 111011Z 32017G24KT 03/M02 A2971 RMK A01 T00281016  RH  073%=      5-min Rain = 0
KPD2 111012Z 32011G17KT 03/M02 A2971 RMK A01 T00281016  RH  073%=      5-min Rain = 0
KPD2 111013Z 32012KT 03/M02 A2971 RMK A01 T00281016  RH  073%=      5-min Rain = 0
KPD2 111014Z 32019G30KT 03/M02 A2971 RMK A01 T00281016  RH  073%=      5-min Rain = 0
KPD2 111015Z 31019G28KT 03/M02 A2971 RMK A01 T00281015  RH  073%=      5-min Rain = 0
KPD2 111016Z 32015G23KT 03/M02 A2971 RMK A01 T00291015  RH  073%=      5-min Rain = 0
KPD2 111017Z 32014KT 03/M01 A2971 RMK A01 T00291014  RH  073%=      5-min Rain = 0
KPD2 111018Z 33013KT 03/M01 A2971 RMK A01 T00291014  RH  073%=      5-min Rain = 0
KPD2 111019Z 34014G21KT 03/M01 A2971 RMK A01 T00291014  RH  073%=      5-min Rain = 0
KPD2 111020Z 34015G22KT 03/M01 A2972 RMK A01 T00301014  RH  073%=      5-min Rain = 0
KPD2 111021Z 32014G22KT 03/M01 A2972 RMK A01 T00301013  RH  073%=      5-min Rain = 0
KPD2 111022Z 33021G28KT 03/M01 A2971 RMK A01 T00301013  RH  073%=      5-min Rain = 0
KPD2 111023Z 33016G24KT 03/M01 A2972 RMK A01 T00311012  RH  073%=      5-min Rain = 0
KPD2 111024Z 33013G19KT 03/M01 A2972 RMK A01 T00311013  RH  073%=      5-min Rain = 0
KPD2 111025Z 31016G22KT 03/M01 A2972 RMK A01 T00311013  RH  073%=      5-min Rain = 0
KPD2 111026Z 32015KT 03/M01 A2972 RMK A01 T00321012  RH  073%=      5-min Rain = 0
KPD2 111027Z 32025G32KT 03/M01 A2972 RMK A01 T00321013  RH  072%=      5-min Rain = 0
KPD2 111028Z 32025G33KT 03/M02 A2973 RMK A01 T00321015  RH  071%=      5-min Rain = 0
KPD2 111029Z 32016G23KT 03/M02 A2974 RMK A01 T00321017  RH  071%=      5-min Rain = 0
KPD2 111030Z 33017G22KT 03/M02 A2974 RMK A01 T00311018  RH  070%=      5-min Rain = 0
KPD2 111031Z 33021G32KT 03/M02 A2974 RMK A01 T00301020  RH  070%=      5-min Rain = 0
KPD2 111032Z 32020G29KT 03/M02 A2974 RMK A01 T00291021  RH  069%=      5-min Rain = 0
KPD2 111033Z 34019G27KT 03/M02 A2974 RMK A01 T00291021  RH  069%=      5-min Rain = 0
KPD2 111034Z 33018G32KT 03/M02 A2975 RMK A01 T00291022  RH  069%=      5-min Rain = 0
KPD2 111035Z 32021G30KT 03/M02 A2975 RMK A01 T00291022  RH  069%=      5-min Rain = 0
KPD2 111036Z 32022G31KT 03/M02 A2975 RMK A01 T00281023  RH  069%=      5-min Rain = 0
KPD2 111037Z 32023G28KT 03/M02 A2975 RMK A01 T00281024  RH  068%=      5-min Rain = 0
KPD2 111038Z 32022G28KT 03/M03 A2975 RMK A01 T00281025  RH  068%=      5-min Rain = 0
KPD2 111039Z 32018G29KT 03/M03 A2976 RMK A01 T00281026  RH  068%=      5-min Rain = 0
KPD2 111040Z 34021G28KT 03/M03 A2976 RMK A01 T00271026  RH  068%=      5-min Rain = 0
KPD2 111041Z 33014G22KT 03/M03 A2976 RMK A01 T00271027  RH  068%=      5-min Rain = 0
KPD2 111042Z 33019G25KT 03/M03 A2976 RMK A01 T00261028  RH  068%=      5-min Rain = 0
KPD2 111043Z 32015G27KT 03/M03 A2976 RMK A01 T00261028  RH  068%=      5-min Rain = 0
KPD2 111044Z 32014KT 03/M03 A2976 RMK A01 T00261028  RH  068%=      5-min Rain = 0
KPD2 111045Z 32019G27KT 03/M03 A2976 RMK A01 T00261028  RH  068%=      5-min Rain = 0
KPD2 111046Z 34019G26KT 03/M03 A2977 RMK A01 T00251029  RH  068%=      5-min Rain = 0
KPD2 111047Z 33016G21KT 03/M03 A2977 RMK A01 T00251029  RH  068%=      5-min Rain = 0
KPD2 111048Z 32020G26KT 03/M03 A2976 RMK A01 T00251029  RH  068%=      5-min Rain = 0
KPD2 111049Z 33020G27KT 03/M03 A2977 RMK A01 T00251029  RH  068%=      5-min Rain = 0
KPD2 111050Z 32019G27KT 03/M03 A2977 RMK A01 T00251029  RH  068%=      5-min Rain = 0
KPD2 111051Z 31016G23KT 02/M03 A2976 RMK A01 T00241029  RH  068%=      5-min Rain = 0
KPD2 111052Z 33020G25KT 03/M03 A2977 RMK A01 T00251028  RH  068%=      5-min Rain = 0
KPD2 111053Z 32014KT 02/M03 A2977 RMK A01 T00241028  RH  068%=      5-min Rain = 0
KPD2 111054Z 32018G24KT 03/M03 A2977 RMK A01 T00251027  RH  069%=      5-min Rain = 0
KPD2 111055Z 32016G22KT 03/M03 A2977 RMK A01 T00251027  RH  069%=      5-min Rain = 0
KPD2 111056Z 33014G19KT 02/M03 A2977 RMK A01 T00241027  RH  069%=      5-min Rain = 0
KPD2 111057Z 33020G27KT 03/M03 A2977 RMK A01 T00251027  RH  069%=      5-min Rain = 0
KPD2 111058Z 32015G20KT 03/M03 A2977 RMK A01 T00251027  RH  069%=      5-min Rain = 0
KPD2 111059Z 33016G21KT 02/M03 A2978 RMK A01 T00241027  RH  069%=      5-min Rain = 0
KPD2 111100Z 33015KT 02/M03 A2978 RMK A01 T00241027  RH  069%=      5-min Rain = 0
KPD2 111101Z 32023G34KT 02/M03 A2977 RMK A01 T00241028  RH  069%=      5-min Rain = 0
KPD2 111102Z 31017G23KT 02/M03 A2978 RMK A01 T00241029  RH  068%=      5-min Rain = 0
KPD2 111103Z 33019G24KT 02/M03 A2978 RMK A01 T00241030  RH  067%=      5-min Rain = 0
KPD2 111104Z 34023G31KT 02/M03 A2978 RMK A01 T00241032  RH  067%=      5-min Rain = 0
KPD2 111105Z 33023G33KT 02/M03 A2978 RMK A01 T00231034  RH  066%=      5-min Rain = 0
KPD2 111106Z 34019G28KT 02/M03 A2979 RMK A01 T00221034  RH  066%=      5-min Rain = 0
KPD2 111107Z 33023G29KT 02/M04 A2979 RMK A01 T00221035  RH  066%=      5-min Rain = 0
KPD2 111108Z 33026G32KT 02/M04 A2979 RMK A01 T00211035  RH  066%=      5-min Rain = 0
KPD2 111109Z 32017G25KT 02/M04 A2979 RMK A01 T00211035  RH  067%=      5-min Rain = 0
KPD2 111110Z 33018G27KT 02/M03 A2979 RMK A01 T00201034  RH  067%=      5-min Rain = 0
KPD2 111111Z 33023G32KT 02/M03 A2979 RMK A01 T00201034  RH  067%=      5-min Rain = 0
KPD2 111112Z 33019G27KT 02/M03 A2979 RMK A01 T00201033  RH  068%=      5-min Rain = 0
KPD2 111113Z 33023G28KT 02/M03 A2979 RMK A01 T00201033  RH  068%=      5-min Rain = 0
KPD2 111114Z 33020G29KT 02/M03 A2979 RMK A01 T00211032  RH  068%=      5-min Rain = 0
KPD2 111115Z 33016G23KT 02/M03 A2979 RMK A01 T00211032  RH  068%=      5-min Rain = 0
KPD2 111116Z 33013G22KT 02/M03 A2979 RMK A01 T00211032  RH  068%=      5-min Rain = 0
KPD2 111117Z 33023G31KT 02/M03 A2979 RMK A01 T00201032  RH  068%=      5-min Rain = 0
KPD2 111118Z 32017G25KT 02/M03 A2979 RMK A01 T00201034  RH  068%=      5-min Rain = 0
KPD2 111119Z 33021G33KT 02/M03 A2979 RMK A01 T00191034  RH  068%=      5-min Rain = 0
KPD2 111120Z 33016G28KT 02/M04 A2979 RMK A01 T00191035  RH  067%=      5-min Rain = 0
KPD2 111121Z 32017G25KT 02/M04 A298 RMK A01 T00181035  RH  068%=      5-min Rain = 0
KPD2 111122Z 32016G21KT 02/M04 A298 RMK A01 T00181036  RH  067%=      5-min Rain = 0
KPD2 111123Z 33022G32KT 02/M04 A298 RMK A01 T00181036  RH  067%=      5-min Rain = 0
KPD2 111124Z 32017G25KT 02/M04 A298 RMK A01 T00171038  RH  067%=      5-min Rain = 0
KPD2 111125Z 33021G35KT 02/M04 A298 RMK A01 T00161039  RH  067%=      5-min Rain = 0
KPD2 111126Z 32019G31KT 02/M04 A298 RMK A01 T00151039  RH  067%=      5-min Rain = 0
KPD2 111127Z 32017KT 01/M04 A2981 RMK A01 T00141040  RH  067%=      5-min Rain = 0
KPD2 111128Z 32022G31KT 01/M04 A2981 RMK A01 T00141040  RH  067%=      5-min Rain = 0
KPD2 111129Z 32020G31KT 01/M04 A2981 RMK A01 T00131041  RH  067%=      5-min Rain = 0
KPD2 111130Z 32021G28KT 01/M04 A2981 RMK A01 T00131042  RH  067%=      5-min Rain = 0
KPD2 111131Z 32024G33KT 01/M04 A2981 RMK A01 T00121042  RH  067%=      5-min Rain = 0
KPD2 111132Z 32017G24KT 01/M04 A2982 RMK A01 T00121043  RH  067%=      5-min Rain = 0
KPD2 111133Z 32013KT 01/M04 A2982 RMK A01 T00121043  RH  067%=      5-min Rain = 0
KPD2 111134Z 31014G21KT 01/M04 A2982 RMK A01 T00111044  RH  067%=      5-min Rain = 0
KPD2 111135Z 32017KT 01/M04 A2982 RMK A01 T00111044  RH  067%=      5-min Rain = 0
KPD2 111136Z 33017G28KT 01/M04 A2983 RMK A01 T00101044  RH  067%=      5-min Rain = 0
KPD2 111137Z 32022G34KT 01/M04 A2982 RMK A01 T00101044  RH  067%=      5-min Rain = 0
KPD2 111138Z 33021G27KT 01/M04 A2983 RMK A01 T00101044  RH  067%=      5-min Rain = 0
KPD2 111139Z 34014G20KT 01/M04 A2983 RMK A01 T00101044  RH  067%=      5-min Rain = 0
KPD2 111140Z 32014G21KT 01/M05 A2983 RMK A01 T00101045  RH  067%=      5-min Rain = 0
KPD2 111141Z 32015G20KT 01/M05 A2983 RMK A01 T00091045  RH  067%=      5-min Rain = 0
KPD2 111142Z 33019G25KT 01/M05 A2983 RMK A01 T00091045  RH  067%=      5-min Rain = 0
KPD2 111143Z 31016G26KT 01/M05 A2983 RMK A01 T00091046  RH  067%=      5-min Rain = 0
KPD2 111144Z 33022G31KT 01/M05 A2984 RMK A01 T00081046  RH  067%=      5-min Rain = 0
KPD2 111145Z 32021G30KT 01/M05 A2984 RMK A01 T00081047  RH  067%=      5-min Rain = 0
KPD2 111146Z 32018G23KT 01/M05 A2984 RMK A01 T00071047  RH  067%=      5-min Rain = 0
KPD2 111147Z 32016KT 01/M05 A2984 RMK A01 T00071047  RH  067%=      5-min Rain = 0
KPD2 111148Z 32015G22KT 01/M05 A2984 RMK A01 T00071047  RH  067%=      5-min Rain = 0
KPD2 111149Z 33020G29KT 01/M05 A2984 RMK A01 T00071047  RH  067%=      5-min Rain = 0
KPD2 111150Z 33019G29KT 01/M05 A2984 RMK A01 T00061048  RH  067%=      5-min Rain = 0
KPD2 111151Z 31017G24KT 01/M05 A2984 RMK A01 T00061048  RH  067%=      5-min Rain = 0
KPD2 111152Z 32019G26KT 01/M05 A2984 RMK A01 T00061048  RH  067%=      5-min Rain = 0
KPD2 111153Z 32017G23KT 01/M05 A2985 RMK A01 T00061048  RH  067%=      5-min Rain = 0
KPD2 111154Z 33018G31KT 01/M05 A2985 RMK A01 T00061048  RH  067%=      5-min Rain = 0
KPD2 111155Z 32016G21KT 01/M05 A2985 RMK A01 T00061048  RH  067%=      5-min Rain = 0
KPD2 111156Z 32017G22KT 01/M05 A2985 RMK A01 T00061048  RH  067%=      5-min Rain = 0
KPD2 111157Z 32017G24KT 01/M05 A2985 RMK A01 T00051049  RH  067%=      5-min Rain = 0
KPD2 111158Z 32021G27KT 01/M05 A2985 RMK A01 T00051049  RH  067%=      5-min Rain = 0
KPD2 111159Z 32014G22KT 01/M05 A2985 RMK A01 T00051049  RH  067%=      5-min Rain = 0
KPD2 111200Z 32014KT 00/M05 A2986 RMK A01 T00041049  RH  067%=      5-min Rain = 0
KPD2 111201Z 31012KT 00/M05 A2986 RMK A01 T00041049  RH  067%=      5-min Rain = 0
KPD2 111202Z 32016G24KT 00/M05 A2986 RMK A01 T00031050  RH  068%=      5-min Rain = 0
KPD2 111203Z 33018G26KT 00/M05 A2986 RMK A01 T00031050  RH  068%=      5-min Rain = 0
KPD2 111204Z 33013G20KT 00/M05 A2986 RMK A01 T00031050  RH  068%=      5-min Rain = 0
KPD2 111205Z 32014G19KT 00/M05 A2986 RMK A01 T00021050  RH  068%=      5-min Rain = 0
KPD2 111206Z 32013G18KT 00/M05 A2987 RMK A01 T00021050  RH  068%=      5-min Rain = 0
KPD2 111207Z 33017G22KT 00/M05 A2986 RMK A01 T00021050  RH  068%=      5-min Rain = 0
KPD2 111208Z 33017G27KT 00/M05 A2987 RMK A01 T00021050  RH  068%=      5-min Rain = 0
KPD2 111209Z 33015G21KT 00/M05 A2987 RMK A01 T00021050  RH  068%=      5-min Rain = 0
KPD2 111210Z 33014G20KT 00/M05 A2987 RMK A01 T00021050  RH  068%=      5-min Rain = 0
KPD2 111211Z 32018G25KT 00/M05 A2987 RMK A01 T00021050  RH  068%=      5-min Rain = 0
KPD2 111212Z 33023G29KT 00/M05 A2987 RMK A01 T00031050  RH  068%=      5-min Rain = 0
KPD2 111213Z 33016G21KT 00/M05 A2987 RMK A01 T00021050  RH  068%=      5-min Rain = 0
KPD2 111214Z 32014KT 00/M05 A2987 RMK A01 T00031050  RH  068%=      5-min Rain = 0
KPD2 111215Z 33015G20KT 00/M05 A2987 RMK A01 T00031050  RH  068%=      5-min Rain = 0
KPD2 111216Z 32019G28KT 00/M05 A2987 RMK A01 T00031051  RH  067%=      5-min Rain = 0
KPD2 111217Z 32020G26KT 00/M05 A2987 RMK A01 T00031051  RH  067%=      5-min Rain = 0
KPD2 111218Z 32023G31KT 00/M05 A2987 RMK A01 T00031051  RH  067%=      5-min Rain = 0
KPD2 111219Z 32021KT 00/M05 A2987 RMK A01 T00031051  RH  067%=      5-min Rain = 0
KPD2 111220Z 32020G26KT 00/M05 A2988 RMK A01 T00031051  RH  067%=      5-min Rain = 0
KPD2 111221Z 32017G22KT 00/M05 A2988 RMK A01 T00031052  RH  067%=      5-min Rain = 0
KPD2 111222Z 33016KT 00/M05 A2988 RMK A01 T00031052  RH  067%=      5-min Rain = 0
KPD2 111223Z 33019G27KT 00/M05 A2988 RMK A01 T00031051  RH  067%=      5-min Rain = 0
KPD2 111224Z 33017G22KT 00/M05 A2988 RMK A01 T00031052  RH  067%=      5-min Rain = 0
KPD2 111225Z 32017G27KT 00/M05 A2988 RMK A01 T00031052  RH  067%=      5-min Rain = 0
KPD2 111226Z 32014G20KT 00/M05 A2988 RMK A01 T00031052  RH  067%=      5-min Rain = 0
KPD2 111227Z 32018G23KT 00/M05 A2988 RMK A01 T00031052  RH  067%=      5-min Rain = 0
KPD2 111228Z 33017G24KT 00/M05 A2988 RMK A01 T00041051  RH  067%=      5-min Rain = 0
KPD2 111229Z 32016G25KT 00/M05 A2988 RMK A01 T00041051  RH  067%=      5-min Rain = 0
KPD2 111230Z 33019KT 00/M05 A2988 RMK A01 T00031052  RH  067%=      5-min Rain = 0
KPD2 111231Z 32020G25KT 00/M05 A2988 RMK A01 T00031051  RH  067%=      5-min Rain = 0
KPD2 111232Z 34023G31KT 00/M05 A2989 RMK A01 T00041051  RH  067%=      5-min Rain = 0
KPD2 111233Z 33020G27KT 00/M05 A2989 RMK A01 T00041051  RH  067%=      5-min Rain = 0
KPD2 111234Z 32020G28KT 00/M05 A2989 RMK A01 T00041052  RH  066%=      5-min Rain = 0
KPD2 111235Z 33021G27KT 00/M05 A299 RMK A01 T00041053  RH  066%=      5-min Rain = 0
KPD2 111236Z 32024G32KT 00/M06 A299 RMK A01 T00031055  RH  065%=      5-min Rain = 0
KPD2 111237Z 32021G27KT 00/M06 A299 RMK A01 T00021057  RH  065%=      5-min Rain = 0
KPD2 111238Z 34020G27KT 00/M06 A299 RMK A01 T00011058  RH  064%=      5-min Rain = 0
KPD2 111239Z 34018G29KT 00/M06 A299 RMK A01 T00011059  RH  064%=      5-min Rain = 0
KPD2 111240Z 33021G29KT 00/M06 A299 RMK A01 T00011059  RH  064%=      5-min Rain = 0
KPD2 111241Z 34018G25KT 00/M06 A299 RMK A01 T00011060  RH  064%=      5-min Rain = 0
KPD2 111242Z 32016G22KT 00/06 A2991 RMK A01 T00000-60  RH  064%=      5-min Rain = 0
KPD2 111243Z 34020KT 00/06 A2991 RMK A01 T00000-60  RH  064%=      5-min Rain = 0
KPD2 111244Z 32017G26KT 00/06 A2991 RMK A01 T00-00-61  RH  064%=      5-min Rain = 0
KPD2 111245Z 34018G26KT M00/M06 A2991 RMK A01 T10011061  RH  064%=      5-min Rain = 0
KPD2 111246Z 34017G25KT M00/M06 A2992 RMK A01 T10011061  RH  064%=      5-min Rain = 0
KPD2 111247Z 33017G25KT M00/M06 A2992 RMK A01 T10011062  RH  063%=      5-min Rain = 0
KPD2 111248Z 34023G29KT M00/M07 A2991 RMK A01 T10021065  RH  063%=      5-min Rain = 0
KPD2 111249Z 33017G25KT M00/M07 A2992 RMK A01 T10031066  RH  062%=      5-min Rain = 0
KPD2 111250Z 33020G27KT M00/M07 A2992 RMK A01 T10031068  RH  062%=      5-min Rain = 0
KPD2 111251Z 32016G24KT M00/M07 A2992 RMK A01 T10041069  RH  061%=      5-min Rain = 0
KPD2 111252Z 32018G25KT M00/M07 A2992 RMK A01 T10041070  RH  061%=      5-min Rain = 0
KPD2 111253Z 31020G27KT M01/M07 A2992 RMK A01 T10051071  RH  061%=      5-min Rain = 0
KPD2 111254Z 33018KT M01/M07 A2992 RMK A01 T10051072  RH  061%=      5-min Rain = 0
KPD2 111255Z 31011G16KT M01/M07 A2992 RMK A01 T10061072  RH  061%=      5-min Rain = 0
KPD2 111256Z 33018G24KT M01/M07 A2992 RMK A01 T10061072  RH  061%=      5-min Rain = 0
KPD2 111257Z 32018KT M01/M07 A2992 RMK A01 T10061071  RH  061%=      5-min Rain = 0
KPD2 111258Z 32018G27KT M01/M07 A2992 RMK A01 T10061071  RH  062%=      5-min Rain = 0
KPD2 111259Z 32019G25KT M01/M07 A2992 RMK A01 T10061070  RH  062%=      5-min Rain = 0
KPD2 111300Z 33018G24KT M01/M07 A2992 RMK A01 T10061070  RH  062%=      5-min Rain = 0
KPD2 111301Z 34017G22KT M01/M07 A2992 RMK A01 T10061070  RH  062%=      5-min Rain = 0
KPD2 111302Z 32010G17KT M01/M07 A2993 RMK A01 T10061069  RH  062%=      5-min Rain = 0
KPD2 111303Z 32011KT M01/M07 A2993 RMK A01 T10061069  RH  062%=      5-min Rain = 0
KPD2 111304Z 32014G20KT M01/M07 A2993 RMK A01 T10071069  RH  063%=      5-min Rain = 0
KPD2 111305Z 32011G16KT M01/M07 A2993 RMK A01 T10071068  RH  063%=      5-min Rain = 0
KPD2 111306Z 32011KT M01/M07 A2993 RMK A01 T10071068  RH  063%=      5-min Rain = 0
KPD2 111307Z 32011KT M01/M07 A2993 RMK A01 T10071068  RH  063%=      5-min Rain = 0
KPD2 111308Z 32012G20KT M01/M07 A2993 RMK A01 T10071068  RH  063%=      5-min Rain = 0
KPD2 111309Z 33015G22KT M01/M07 A2993 RMK A01 T10071068  RH  063%=      5-min Rain = 0
KPD2 111310Z 32013KT M01/M07 A2993 RMK A01 T10061067  RH  063%=      5-min Rain = 0
KPD2 111311Z 33014KT M01/M07 A2993 RMK A01 T10071068  RH  063%=      5-min Rain = 0
KPD2 111312Z 34013G20KT M01/M07 A2994 RMK A01 T10061068  RH  063%=      5-min Rain = 0
KPD2 111313Z 33012G17KT M01/M07 A2993 RMK A01 T10061068  RH  063%=      5-min Rain = 0
KPD2 111314Z 33015G20KT M01/M07 A2993 RMK A01 T10061068  RH  063%=      5-min Rain = 0
KPD2 111315Z 32012KT M01/M07 A2994 RMK A01 T10061068  RH  063%=      5-min Rain = 0
KPD2 111316Z 33012G17KT M01/M07 A2994 RMK A01 T10061068  RH  063%=      5-min Rain = 0
KPD2 111317Z 33017G22KT M01/M07 A2994 RMK A01 T10061068  RH  063%=      5-min Rain = 0
KPD2 111318Z 33017G26KT M01/M07 A2994 RMK A01 T10061068  RH  063%=      5-min Rain = 0
KPD2 111319Z 33018G26KT M01/M07 A2994 RMK A01 T10061070  RH  062%=      5-min Rain = 0
KPD2 111320Z 33014KT M01/M07 A2994 RMK A01 T10061071  RH  061%=      5-min Rain = 0
KPD2 111321Z 31013KT M01/M07 A2994 RMK A01 T10061072  RH  061%=      5-min Rain = 0
KPD2 111322Z 34011G16KT M01/M07 A2994 RMK A01 T10061072  RH  061%=      5-min Rain = 0
KPD2 111323Z 33011G17KT M01/M07 A2994 RMK A01 T10071073  RH  061%=      5-min Rain = 0
KPD2 111324Z 33009KT M01/M07 A2994 RMK A01 T10071074  RH  061%=      5-min Rain = 0
KPD2 111325Z 33013G22KT M01/M07 A2994 RMK A01 T10081074  RH  061%=      5-min Rain = 0
KPD2 111326Z 34016G21KT M01/M08 A2994 RMK A01 T10081075  RH  060%=      5-min Rain = 0
KPD2 111327Z 32015G20KT M01/M08 A2994 RMK A01 T10081076  RH  060%=      5-min Rain = 0
KPD2 111328Z 32016G21KT M01/M08 A2994 RMK A01 T10081077  RH  060%=      5-min Rain = 0
KPD2 111329Z 33018G25KT M01/M08 A2994 RMK A01 T10081077  RH  060%=      5-min Rain = 0
KPD2 111330Z 33017G27KT M01/M08 A2995 RMK A01 T10081077  RH  059%=      5-min Rain = 0
KPD2 111331Z 32015G24KT M01/M08 A2995 RMK A01 T10081078  RH  059%=      5-min Rain = 0
KPD2 111332Z 32013G18KT M01/M08 A2995 RMK A01 T10081078  RH  059%=      5-min Rain = 0
KPD2 111333Z 31021G26KT M01/M08 A2995 RMK A01 T10091079  RH  059%=      5-min Rain = 0
KPD2 111334Z 33018G25KT M01/M08 A2995 RMK A01 T10091079  RH  059%=      5-min Rain = 0
KPD2 111335Z 32013G18KT M01/M08 A2995 RMK A01 T10091079  RH  059%=      5-min Rain = 0
KPD2 111336Z 31013KT M01/M08 A2995 RMK A01 T10091079  RH  059%=      5-min Rain = 0
KPD2 111337Z 32015KT M01/M08 A2995 RMK A01 T10091079  RH  059%=      5-min Rain = 0
KPD2 111338Z 32014G21KT M01/M08 A2995 RMK A01 T10101080  RH  059%=      5-min Rain = 0
KPD2 111339Z 32013G22KT M01/M08 A2995 RMK A01 T10101080  RH  059%=      5-min Rain = 0
KPD2 111340Z 32014G21KT M01/M08 A2995 RMK A01 T10101080  RH  059%=      5-min Rain = 0
KPD2 111341Z 32014G21KT M01/M08 A2995 RMK A01 T10101080  RH  059%=      5-min Rain = 0
KPD2 111342Z 32018G24KT M01/M08 A2995 RMK A01 T10101080  RH  059%=      5-min Rain = 0
KPD2 111343Z 33013G19KT M01/M08 A2995 RMK A01 T10101079  RH  059%=      5-min Rain = 0
KPD2 111344Z 32014G22KT M01/M08 A2995 RMK A01 T10101080  RH  059%=      5-min Rain = 0
KPD2 111345Z 33013G22KT M01/M08 A2996 RMK A01 T10101080  RH  059%=      5-min Rain = 0
KPD2 111346Z 32012G18KT M01/M08 A2996 RMK A01 T10101080  RH  059%=      5-min Rain = 0
KPD2 111347Z 32010G15KT M01/M08 A2996 RMK A01 T10101080  RH  059%=      5-min Rain = 0
KPD2 111348Z 33015G25KT M01/M08 A2996 RMK A01 T10101080  RH  059%=      5-min Rain = 0
KPD2 111349Z 33019G25KT M01/M08 A2996 RMK A01 T10101080  RH  059%=      5-min Rain = 0
KPD2 111350Z 32017G25KT M01/M08 A2996 RMK A01 T10101080  RH  059%=      5-min Rain = 0
KPD2 111351Z 33014KT M01/M08 A2996 RMK A01 T10101080  RH  059%=      5-min Rain = 0
KPD2 111352Z 32014G20KT M01/M08 A2996 RMK A01 T10101080  RH  059%=      5-min Rain = 0
KPD2 111353Z 32016G24KT M01/M08 A2996 RMK A01 T10101080  RH  059%=      5-min Rain = 0
KPD2 111354Z 32011G16KT M01/M08 A2996 RMK A01 T10101080  RH  059%=      5-min Rain = 0
KPD2 111355Z 33015G21KT M01/M08 A2996 RMK A01 T10091079  RH  059%=      5-min Rain = 0
KPD2 111356Z 33015G20KT M01/M08 A2996 RMK A01 T10091079  RH  059%=      5-min Rain = 0
KPD2 111357Z 32013G18KT M01/M08 A2997 RMK A01 T10091079  RH  059%=      5-min Rain = 0
KPD2 111358Z 31016KT M01/M08 A2997 RMK A01 T10101079  RH  059%=      5-min Rain = 0
KPD2 111359Z 32012KT M01/M08 A2997 RMK A01 T10091079  RH  059%=      5-min Rain = 0
KPD2 111400Z 32013KT M01/M08 A2997 RMK A01 T10091079  RH  059%=      5-min Rain = 0
KPD2 111401Z 32011G17KT M01/M08 A2997 RMK A01 T10091079  RH  059%=      5-min Rain = 0
KPD2 111402Z 32018G29KT M01/M08 A2997 RMK A01 T10091079  RH  059%=      5-min Rain = 0
KPD2 111403Z 32015KT M01/M08 A2997 RMK A01 T10091079  RH  059%=      5-min Rain = 0
KPD2 111404Z 33012KT M01/M08 A2997 RMK A01 T10091079  RH  059%=      5-min Rain = 0
KPD2 111405Z 31017KT M01/M08 A2997 RMK A01 T10091079  RH  059%=      5-min Rain = 0
KPD2 111406Z 33017KT M01/M08 A2997 RMK A01 T10091079  RH  059%=      5-min Rain = 0
KPD2 111407Z 32017G24KT M01/M08 A2997 RMK A01 T10081079  RH  059%=      5-min Rain = 0
KPD2 111408Z 33014G20KT M01/M08 A2997 RMK A01 T10091080  RH  058%=      5-min Rain = 0
KPD2 111409Z 32016G21KT M01/M08 A2997 RMK A01 T10091080  RH  058%=      5-min Rain = 0
KPD2 111410Z 32012KT M01/M08 A2997 RMK A01 T10081080  RH  058%=      5-min Rain = 0
KPD2 111411Z 32016G23KT M01/M08 A2998 RMK A01 T10081080  RH  058%=      5-min Rain = 0
KPD2 111412Z 32016G24KT M01/M08 A2998 RMK A01 T10081080  RH  058%=      5-min Rain = 0
KPD2 111413Z 33011KT M01/M08 A2998 RMK A01 T10081080  RH  058%=      5-min Rain = 0
KPD2 111414Z 31011KT M01/M08 A2998 RMK A01 T10081080  RH  058%=      5-min Rain = 0
KPD2 111415Z 32012G17KT M01/M08 A2998 RMK A01 T10081080  RH  058%=      5-min Rain = 0
KPD2 111416Z 33014KT M01/M08 A2998 RMK A01 T10081080  RH  058%=      5-min Rain = 0
KPD2 111417Z 31011KT M01/M08 A2998 RMK A01 T10081080  RH  058%=      5-min Rain = 0
KPD2 111418Z 32011KT M01/M08 A2998 RMK A01 T10081080  RH  058%=      5-min Rain = 0
KPD2 111419Z 33012KT M01/M08 A2998 RMK A01 T10081080  RH  058%=      5-min Rain = 0
KPD2 111420Z 32018G24KT M01/M08 A2998 RMK A01 T10081080  RH  058%=      5-min Rain = 0
KPD2 111421Z 32017G26KT M01/M08 A2998 RMK A01 T10071080  RH  058%=      5-min Rain = 0
KPD2 111422Z 32015G21KT M01/M08 A2998 RMK A01 T10071080  RH  058%=      5-min Rain = 0
KPD2 111423Z 31018KT M01/M08 A2998 RMK A01 T10071080  RH  058%=      5-min Rain = 0
KPD2 111424Z 32015G24KT M01/M08 A2999 RMK A01 T10071081  RH  057%=      5-min Rain = 0
KPD2 111425Z 33018G25KT M01/M08 A2999 RMK A01 T10071080  RH  057%=      5-min Rain = 0
KPD2 111426Z 32016G23KT M01/M08 A2999 RMK A01 T10071081  RH  057%=      5-min Rain = 0
KPD2 111427Z 32022G29KT M01/M08 A2999 RMK A01 T10071081  RH  057%=      5-min Rain = 0
KPD2 111428Z 32019G26KT M01/M08 A2999 RMK A01 T10071081  RH  057%=      5-min Rain = 0
KPD2 111429Z 32015G21KT M01/M08 A2999 RMK A01 T10061080  RH  057%=      5-min Rain = 0
KPD2 111430Z 32015G22KT M01/M08 A2999 RMK A01 T10061080  RH  057%=      5-min Rain = 0
KPD2 111431Z 32014G23KT M01/M08 A2999 RMK A01 T10061080  RH  057%=      5-min Rain = 0
KPD2 111432Z 32012KT M01/M08 A30 RMK A01 T10061080  RH  057%=      5-min Rain = 0
KPD2 111433Z 32012KT M01/M08 A30 RMK A01 T10061079  RH  058%=      5-min Rain = 0
KPD2 111434Z 32014G20KT M01/M08 A30 RMK A01 T10061079  RH  058%=      5-min Rain = 0
KPD2 111435Z 33012G17KT M01/M08 A30 RMK A01 T10061079  RH  058%=      5-min Rain = 0
KPD2 111436Z 31010G15KT M01/M08 A30 RMK A01 T10061079  RH  058%=      5-min Rain = 0
KPD2 111437Z 31012G19KT M01/M08 A30 RMK A01 T10061079  RH  058%=      5-min Rain = 0
KPD2 111438Z 32014G21KT M01/M08 A3001 RMK A01 T10051078  RH  058%=      5-min Rain = 0
KPD2 111439Z 34014G21KT M01/M08 A3001 RMK A01 T10051079  RH  057%=      5-min Rain = 0
KPD2 111440Z 32012G17KT M01/M08 A3001 RMK A01 T10051079  RH  057%=      5-min Rain = 0
KPD2 111441Z 33013KT M00/M08 A3001 RMK A01 T10041078  RH  057%=      5-min Rain = 0
KPD2 111442Z 32010G17KT M00/M08 A3001 RMK A01 T10041079  RH  057%=      5-min Rain = 0
KPD2 111443Z 34015G23KT M00/M08 A3002 RMK A01 T10041078  RH  057%=      5-min Rain = 0
KPD2 111444Z 32010KT M00/M08 A3002 RMK A01 T10041079  RH  057%=      5-min Rain = 0
KPD2 111445Z 32013G21KT M00/M08 A3002 RMK A01 T10041079  RH  057%=      5-min Rain = 0
KPD2 111446Z 32013G22KT M00/M08 A3002 RMK A01 T10041079  RH  057%=      5-min Rain = 0
KPD2 111447Z 33013KT M00/M08 A3002 RMK A01 T10041079  RH  057%=      5-min Rain = 0
KPD2 111448Z 32011G19KT M00/M08 A3002 RMK A01 T10041079  RH  057%=      5-min Rain = 0
KPD2 111449Z 32016G21KT M00/M08 A3002 RMK A01 T10041078  RH  057%=      5-min Rain = 0
KPD2 111450Z 33014G22KT M00/M08 A3002 RMK A01 T10031078  RH  057%=      5-min Rain = 0
KPD2 111451Z 33011G17KT M00/M08 A3003 RMK A01 T10021078  RH  057%=      5-min Rain = 0
KPD2 111452Z 33008G13KT M00/M08 A3003 RMK A01 T10021077  RH  057%=      5-min Rain = 0
KPD2 111453Z 33012G21KT M00/M08 A3002 RMK A01 T10011077  RH  057%=      5-min Rain = 0
KPD2 111454Z 34011KT 00/08 A3003 RMK A01 T00000-76  RH  057%=      5-min Rain = 0
KPD2 111455Z 32010KT 00/08 A3003 RMK A01 T00-00-77  RH  056%=      5-min Rain = 0
KPD2 111456Z 32017G25KT 00/08 A3003 RMK A01 T00000-76  RH  057%=      5-min Rain = 0
KPD2 111457Z 34013G20KT 00/M08 A3003 RMK A01 T00011075  RH  057%=      5-min Rain = 0
KPD2 111458Z 33014KT 00/08 A3003 RMK A01 T00000-76  RH  057%=      5-min Rain = 0
KPD2 111459Z 34015KT 00/M08 A3003 RMK A01 T00011075  RH  057%=      5-min Rain = 0
KPD2 111500Z 33015KT 00/M08 A3003 RMK A01 T00011075  RH  057%=      5-min Rain = 0
KPD2 111501Z 33013G19KT 00/08 A3003 RMK A01 T00000-75  RH  057%=      5-min Rain = 0
KPD2 111502Z 31011KT 00/08 A3003 RMK A01 T00000-75  RH  057%=      5-min Rain = 0
KPD2 111503Z 33020G26KT 00/08 A3003 RMK A01 T00000-76  RH  056%=      5-min Rain = 0
KPD2 111504Z 32013KT 00/08 A3003 RMK A01 T00000-77  RH  056%=      5-min Rain = 0
KPD2 111505Z 32013G18KT 00/08 A3003 RMK A01 T00-00-77  RH  056%=      5-min Rain = 0
KPD2 111506Z 31014G20KT 00/08 A3004 RMK A01 T00-00-78  RH  056%=      5-min Rain = 0
KPD2 111507Z 33017G24KT 00/08 A3004 RMK A01 T00-00-78  RH  056%=      5-min Rain = 0
KPD2 111508Z 33015KT 00/08 A3004 RMK A01 T00-00-79  RH  055%=      5-min Rain = 0
KPD2 111509Z 33015G22KT M00/M08 A3004 RMK A01 T10011080  RH  055%=      5-min Rain = 0
KPD2 111510Z 32015G21KT M00/M08 A3004 RMK A01 T10011080  RH  055%=      5-min Rain = 0
KPD2 111511Z 33012G19KT 00/08 A3004 RMK A01 T00000-80  RH  055%=      5-min Rain = 0
KPD2 111512Z 31016G22KT 00/08 A3004 RMK A01 T00-00-80  RH  055%=      5-min Rain = 0
KPD2 111513Z 32021G29KT 00/08 A3004 RMK A01 T00-00-81  RH  054%=      5-min Rain = 0
KPD2 111514Z 33017G23KT 00/08 A3005 RMK A01 T00000-81  RH  054%=      5-min Rain = 0
KPD2 111515Z 34016G21KT 00/M08 A3005 RMK A01 T00011081  RH  054%=      5-min Rain = 0
KPD2 111516Z 32014KT 00/M08 A3005 RMK A01 T00021080  RH  054%=      5-min Rain = 0
KPD2 111517Z 32021G27KT 00/M08 A3005 RMK A01 T00031080  RH  053%=      5-min Rain = 0
KPD2 111518Z 33014G21KT 00/M08 A3005 RMK A01 T00031082  RH  053%=      5-min Rain = 0
KPD2 111519Z 31018G28KT 00/M08 A3005 RMK A01 T00031082  RH  053%=      5-min Rain = 0
KPD2 111520Z 32016G22KT 00/M08 A3005 RMK A01 T00031082  RH  053%=      5-min Rain = 0
KPD2 111521Z 32017G24KT 00/M08 A3005 RMK A01 T00041081  RH  053%=      5-min Rain = 0
KPD2 111522Z 33016KT 01/M08 A3005 RMK A01 T00051082  RH  052%=      5-min Rain = 0
KPD2 111523Z 32022G31KT 01/M08 A3005 RMK A01 T00051082  RH  052%=      5-min Rain = 0
KPD2 111524Z 33020G29KT 01/M08 A3005 RMK A01 T00051083  RH  052%=      5-min Rain = 0
KPD2 111525Z 33017G30KT 01/M08 A3005 RMK A01 T00051083  RH  052%=      5-min Rain = 0
KPD2 111526Z 32020G27KT 01/M08 A3005 RMK A01 T00061083  RH  051%=      5-min Rain = 0
KPD2 111527Z 32017G22KT 01/M08 A3005 RMK A01 T00061083  RH  051%=      5-min Rain = 0
KPD2 111528Z 32016G26KT 01/M08 A3006 RMK A01 T00061083  RH  051%=      5-min Rain = 0
KPD2 111529Z 32023G30KT 01/M08 A3005 RMK A01 T00061083  RH  051%=      5-min Rain = 0
KPD2 111530Z 32020G26KT 01/M08 A3006 RMK A01 T00061084  RH  051%=      5-min Rain = 0
KPD2 111531Z 33019KT 01/M08 A3006 RMK A01 T00061084  RH  051%=      5-min Rain = 0
KPD2 111532Z 34024G32KT 01/M08 A3006 RMK A01 T00061084  RH  051%=      5-min Rain = 0
KPD2 111533Z 32018G29KT 01/M08 A3007 RMK A01 T00061084  RH  051%=      5-min Rain = 0
KPD2 111534Z 34021G28KT 01/M08 A3007 RMK A01 T00081084  RH  050%=      5-min Rain = 0
KPD2 111535Z 32014G20KT 01/M08 A3007 RMK A01 T00091084  RH  050%=      5-min Rain = 0
KPD2 111536Z 33017G23KT 01/M08 A3007 RMK A01 T00111083  RH  050%=      5-min Rain = 0
KPD2 111537Z 32011G17KT 01/M08 A3007 RMK A01 T00121084  RH  049%=      5-min Rain = 0
KPD2 111538Z 32021G28KT 01/M08 A3007 RMK A01 T00131083  RH  049%=      5-min Rain = 0
KPD2 111539Z 32017G26KT 01/M09 A3007 RMK A01 T00131085  RH  048%=      5-min Rain = 0
KPD2 111540Z 33019G26KT 01/M09 A3007 RMK A01 T00121085  RH  048%=      5-min Rain = 0
KPD2 111541Z 33018KT 01/M09 A3007 RMK A01 T00111086  RH  048%=      5-min Rain = 0
KPD2 111542Z 34013G18KT 01/M09 A3007 RMK A01 T00101087  RH  048%=      5-min Rain = 0
KPD2 111543Z 33011G19KT 01/M09 A3007 RMK A01 T00121085  RH  049%=      5-min Rain = 0
KPD2 111544Z 33012G18KT 01/M08 A3007 RMK A01 T00141084  RH  048%=      5-min Rain = 0
KPD2 111545Z 33015G29KT 02/M08 A3007 RMK A01 T00151084  RH  048%=      5-min Rain = 0
KPD2 111546Z 32016G21KT 02/M09 A3007 RMK A01 T00161085  RH  047%=      5-min Rain = 0
KPD2 111547Z 33014G20KT 02/M09 A3007 RMK A01 T00161086  RH  047%=      5-min Rain = 0
KPD2 111548Z 32019G25KT 02/M09 A3008 RMK A01 T00161086  RH  047%=      5-min Rain = 0
KPD2 111549Z 33018G25KT 01/M09 A3008 RMK A01 T00141089  RH  046%=      5-min Rain = 0
KPD2 111550Z 34013G19KT 01/M09 A3008 RMK A01 T00121090  RH  047%=      5-min Rain = 0
KPD2 111551Z 32014G20KT 01/M09 A3008 RMK A01 T00121089  RH  047%=      5-min Rain = 0
KPD2 111552Z 34015G20KT 01/M09 A3008 RMK A01 T00121089  RH  047%=      5-min Rain = 0
KPD2 111553Z 34015G22KT 01/M09 A3008 RMK A01 T00141088  RH  047%=      5-min Rain = 0
KPD2 111554Z 33015G20KT 02/M09 A3008 RMK A01 T00151089  RH  046%=      5-min Rain = 0
KPD2 111555Z 31016G24KT 02/M09 A3008 RMK A01 T00161089  RH  046%=      5-min Rain = 0
KPD2 111556Z 33015G22KT 01/M09 A3008 RMK A01 T00141091  RH  045%=      5-min Rain = 0
KPD2 111557Z 34018G23KT 01/M09 A3009 RMK A01 T00141091  RH  045%=      5-min Rain = 0
KPD2 111558Z 34012KT 01/M09 A3009 RMK A01 T00141091  RH  045%=      5-min Rain = 0
KPD2 111559Z 32016G27KT 01/M09 A3009 RMK A01 T00141090  RH  046%=      5-min Rain = 0
KPD2 111600Z 34017G25KT 01/M09 A3009 RMK A01 T00141091  RH  046%=      5-min Rain = 0
KPD2 111601Z 32018G24KT 01/M09 A3009 RMK A01 T00121092  RH  046%=      5-min Rain = 0
KPD2 111602Z 32016G22KT 01/M09 A3009 RMK A01 T00101093  RH  046%=      5-min Rain = 0
KPD2 111603Z 32017G29KT 01/M09 A3009 RMK A01 T00081093  RH  047%=      5-min Rain = 0
KPD2 111604Z 33012G21KT 01/M09 A3009 RMK A01 T00071093  RH  047%=      5-min Rain = 0
KPD2 111605Z 32014G19KT 01/M09 A3009 RMK A01 T00061093  RH  048%=      5-min Rain = 0
KPD2 111606Z 35017G23KT 01/M09 A3009 RMK A01 T00061092  RH  048%=      5-min Rain = 0
KPD2 111607Z 33016G26KT 01/M09 A301 RMK A01 T00061092  RH  048%=      5-min Rain = 0
KPD2 111608Z 32018KT 01/M09 A301 RMK A01 T00051092  RH  048%=      5-min Rain = 0
KPD2 111609Z 34015G20KT 00/M09 A301 RMK A01 T00041093  RH  048%=      5-min Rain = 0
KPD2 111610Z 33017G23KT 00/M09 A301 RMK A01 T00031093  RH  049%=      5-min Rain = 0
KPD2 111611Z 32018G24KT 00/M09 A301 RMK A01 T00021093  RH  049%=      5-min Rain = 0
KPD2 111612Z 31018G25KT 00/M09 A301 RMK A01 T00021093  RH  049%=      5-min Rain = 0
KPD2 111613Z 34017G26KT 00/M09 A301 RMK A01 T00011093  RH  049%=      5-min Rain = 0
KPD2 111614Z 32018G27KT 00/M09 A3011 RMK A01 T00011093  RH  049%=      5-min Rain = 0
KPD2 111615Z 34016G21KT 00/M09 A3011 RMK A01 T00011093  RH  049%=      5-min Rain = 0
KPD2 111616Z 32017G22KT 00/M09 A3011 RMK A01 T00011094  RH  049%=      5-min Rain = 0
KPD2 111617Z 32015G21KT 00/M09 A3011 RMK A01 T00011094  RH  049%=      5-min Rain = 0
KPD2 111618Z 32019G24KT 00/M09 A3011 RMK A01 T00011094  RH  049%=      5-min Rain = 0
KPD2 111619Z 32017G23KT 00/09 A3011 RMK A01 T00000-94  RH  049%=      5-min Rain = 0
KPD2 111620Z 33013G24KT 00/M09 A3012 RMK A01 T00011094  RH  049%=      5-min Rain = 0
KPD2 111621Z 31012G20KT 00/09 A3012 RMK A01 T00000-94  RH  049%=      5-min Rain = 0
KPD2 111622Z 32012G17KT 00/09 A3012 RMK A01 T00000-93  RH  049%=      5-min Rain = 0
KPD2 111623Z 33016G22KT 00/09 A3012 RMK A01 T00000-93  RH  049%=      5-min Rain = 0
KPD2 111624Z 33015G21KT 00/09 A3012 RMK A01 T00000-93  RH  049%=      5-min Rain = 0
KPD2 111625Z 32018G27KT 00/09 A3012 RMK A01 T00000-93  RH  049%=      5-min Rain = 0
KPD2 111626Z 33017G22KT 00/09 A3012 RMK A01 T00-00-94  RH  049%=      5-min Rain = 0
KPD2 111627Z 32017G23KT 00/09 A3013 RMK A01 T00-00-94  RH  049%=      5-min Rain = 0
KPD2 111628Z 33018G27KT 00/09 A3013 RMK A01 T00000-94  RH  049%=      5-min Rain = 0
KPD2 111629Z 34017G24KT 00/09 A3013 RMK A01 T00000-94  RH  049%=      5-min Rain = 0
KPD2 111630Z 34011KT 00/M09 A3013 RMK A01 T00011094  RH  049%=      5-min Rain = 0
KPD2 111631Z 34015G23KT 00/M09 A3013 RMK A01 T00021093  RH  049%=      5-min Rain = 0
KPD2 111632Z 33016KT 00/M09 A3013 RMK A01 T00031093  RH  049%=      5-min Rain = 0
KPD2 111633Z 34016KT 01/M09 A3013 RMK A01 T00051091  RH  048%=      5-min Rain = 0
KPD2 111634Z 33012G17KT 01/M09 A3013 RMK A01 T00061091  RH  048%=      5-min Rain = 0
KPD2 111635Z 34013G18KT 01/M09 A3013 RMK A01 T00071091  RH  048%=      5-min Rain = 0
KPD2 111636Z 33013G23KT 01/M09 A3013 RMK A01 T00081091  RH  047%=      5-min Rain = 0
KPD2 111637Z 33011G16KT 01/M09 A3013 RMK A01 T00091091  RH  047%=      5-min Rain = 0
KPD2 111638Z 33015G23KT 01/M09 A3013 RMK A01 T00101089  RH  047%=      5-min Rain = 0
KPD2 111639Z 33023G30KT 01/M09 A3013 RMK A01 T00111091  RH  047%=      5-min Rain = 0
KPD2 111640Z 33017G24KT 01/M09 A3013 RMK A01 T00091092  RH  047%=      5-min Rain = 0
KPD2 111641Z 33017KT 01/M09 A3013 RMK A01 T00081092  RH  047%=      5-min Rain = 0
KPD2 111642Z 33014G19KT 01/M09 A3013 RMK A01 T00081092  RH  047%=      5-min Rain = 0
KPD2 111643Z 33012G17KT 01/M09 A3013 RMK A01 T00081092  RH  047%=      5-min Rain = 0
KPD2 111644Z 33013KT 01/M09 A3013 RMK A01 T00081092  RH  047%=      5-min Rain = 0
KPD2 111645Z 33015G22KT 01/M09 A3014 RMK A01 T00081092  RH  047%=      5-min Rain = 0
KPD2 111646Z 32013G19KT 01/M09 A3013 RMK A01 T00081091  RH  047%=      5-min Rain = 0
KPD2 111647Z 32014G20KT 01/M09 A3014 RMK A01 T00091091  RH  047%=      5-min Rain = 0
KPD2 111648Z 33015G23KT 01/M09 A3014 RMK A01 T00091091  RH  047%=      5-min Rain = 0
KPD2 111649Z 33015G21KT 01/M09 A3014 RMK A01 T00091091  RH  047%=      5-min Rain = 0
KPD2 111650Z 33010KT 01/M09 A3014 RMK A01 T00081092  RH  047%=      5-min Rain = 0
KPD2 111651Z 33012KT 01/M09 A3014 RMK A01 T00091091  RH  047%=      5-min Rain = 0
KPD2 111652Z 33019G27KT 01/M09 A3014 RMK A01 T00091091  RH  047%=      5-min Rain = 0
KPD2 111653Z 33017G24KT 01/M09 A3014 RMK A01 T00101091  RH  047%=      5-min Rain = 0
KPD2 111654Z 34018G25KT 01/M09 A3014 RMK A01 T00101090  RH  047%=      5-min Rain = 0
KPD2 111655Z 33019G24KT 01/M09 A3014 RMK A01 T00111089  RH  047%=      5-min Rain = 0
KPD2 111656Z 32016G22KT 01/M09 A3014 RMK A01 T00141088  RH  047%=      5-min Rain = 0
KPD2 111657Z 32017G24KT 02/M09 A3014 RMK A01 T00161087  RH  046%=      5-min Rain = 0
KPD2 111658Z 33014G19KT 02/M09 A3014 RMK A01 T00201085  RH  046%=      5-min Rain = 0
KPD2 111659Z 33016G21KT 03/M08 A3014 RMK A01 T00251083  RH  045%=      5-min Rain = 0
KPD2 111700Z 33017G25KT 03/M08 A3015 RMK A01 T00271084  RH  044%=      5-min Rain = 0
KPD2 111701Z 33015KT 03/M09 A3015 RMK A01 T00271085  RH  043%=      5-min Rain = 0
KPD2 111702Z 33015G22KT 03/M09 A3015 RMK A01 T00281085  RH  043%=      5-min Rain = 0
KPD2 111703Z 33013G19KT 03/M09 A3015 RMK A01 T00281085  RH  043%=      5-min Rain = 0
KPD2 111704Z 33014G22KT 03/M09 A3015 RMK A01 T00281085  RH  043%=      5-min Rain = 0
KPD2 111705Z 32018G24KT 03/M09 A3015 RMK A01 T00281086  RH  043%=      5-min Rain = 0
KPD2 111706Z 34021G29KT 03/M09 A3015 RMK A01 T00271088  RH  043%=      5-min Rain = 0
KPD2 111707Z 32019KT 03/M09 A3015 RMK A01 T00251089  RH  043%=      5-min Rain = 0
KPD2 111708Z 34017KT 02/M09 A3015 RMK A01 T00241088  RH  043%=      5-min Rain = 0
KPD2 111709Z 35020G27KT 02/M09 A3015 RMK A01 T00241087  RH  044%=      5-min Rain = 0
KPD2 111710Z 33018KT 03/M09 A3015 RMK A01 T00261086  RH  043%=      5-min Rain = 0
KPD2 111711Z 33015G22KT 03/M09 A3015 RMK A01 T00271086  RH  043%=      5-min Rain = 0
KPD2 111712Z 32016G24KT 03/M09 A3015 RMK A01 T00281086  RH  043%=      5-min Rain = 0
KPD2 111713Z 32016G24KT 03/M09 A3015 RMK A01 T00291086  RH  042%=      5-min Rain = 0
KPD2 111714Z 33021G29KT 03/M09 A3015 RMK A01 T00301087  RH  042%=      5-min Rain = 0
KPD2 111715Z 32019KT 03/M09 A3015 RMK A01 T00301088  RH  042%=      5-min Rain = 0
KPD2 111716Z 31021G30KT 03/M09 A3015 RMK A01 T00301088  RH  041%=      5-min Rain = 0
KPD2 111717Z 33016G22KT 03/M09 A3015 RMK A01 T00311088  RH  041%=      5-min Rain = 0
KPD2 111718Z 33017G24KT 03/M09 A3016 RMK A01 T00341086  RH  041%=      5-min Rain = 0
KPD2 111719Z 33021G26KT 03/M09 A3015 RMK A01 T00341088  RH  041%=      5-min Rain = 0
KPD2 111720Z 33018G25KT 03/M09 A3016 RMK A01 T00321090  RH  040%=      5-min Rain = 0
KPD2 111721Z 32014G22KT 03/M09 A3016 RMK A01 T00311090  RH  041%=      5-min Rain = 0
KPD2 111722Z 32015G20KT 03/M09 A3016 RMK A01 T00311089  RH  041%=      5-min Rain = 0
KPD2 111723Z 33020G29KT 03/M09 A3016 RMK A01 T00321089  RH  041%=      5-min Rain = 0
KPD2 111724Z 33015G21KT 03/M09 A3016 RMK A01 T00321090  RH  040%=      5-min Rain = 0
KPD2 111725Z 33020G25KT 03/M09 A3016 RMK A01 T00341089  RH  040%=      5-min Rain = 0
KPD2 111726Z 32020G27KT 04/M09 A3016 RMK A01 T00351090  RH  039%=      5-min Rain = 0
KPD2 111727Z 34019G26KT 03/M09 A3016 RMK A01 T00341091  RH  039%=      5-min Rain = 0
KPD2 111728Z 33017G25KT 03/M09 A3017 RMK A01 T00341091  RH  040%=      5-min Rain = 0
KPD2 111729Z 34015G21KT 04/M09 A3017 RMK A01 T00351090  RH  040%=      5-min Rain = 0
KPD2 111730Z 34015KT 04/M09 A3017 RMK A01 T00371089  RH  039%=      5-min Rain = 0
KPD2 111731Z 35015G21KT 04/M09 A3017 RMK A01 T00381089  RH  039%=      5-min Rain = 0
KPD2 111732Z 33009G14KT 04/M09 A3017 RMK A01 T00401089  RH  039%=      5-min Rain = 0
KPD2 111733Z 35010KT 04/M09 A3017 RMK A01 T00421087  RH  038%=      5-min Rain = 0
KPD2 111734Z 34010G15KT 04/M09 A3017 RMK A01 T00441088  RH  038%=      5-min Rain = 0
KPD2 111735Z 34013G19KT 04/M09 A3016 RMK A01 T00441088  RH  038%=      5-min Rain = 0
KPD2 111736Z 33016G22KT 04/M09 A3016 RMK A01 T00441089  RH  038%=      5-min Rain = 0
KPD2 111737Z 34019G24KT 04/M09 A3016 RMK A01 T00421090  RH  038%=      5-min Rain = 0
KPD2 111738Z 34027G32KT 04/M09 A3016 RMK A01 T00411090  RH  038%=      5-min Rain = 0
KPD2 111739Z 33023G31KT 04/M09 A3016 RMK A01 T00411091  RH  038%=      5-min Rain = 0
KPD2 111740Z 34025G31KT 04/M09 A3016 RMK A01 T00391093  RH  038%=      5-min Rain = 0
KPD2 111741Z 33025KT 04/M09 A3016 RMK A01 T00381092  RH  038%=      5-min Rain = 0
KPD2 111742Z 33025G31KT 04/M09 A3016 RMK A01 T00381092  RH  038%=      5-min Rain = 0
KPD2 111743Z 34021G28KT 04/M09 A3017 RMK A01 T00381092  RH  038%=      5-min Rain = 0
KPD2 111744Z 34021G27KT 04/M09 A3017 RMK A01 T00381091  RH  038%=      5-min Rain = 0
KPD2 111745Z 34013G20KT 04/M09 A3017 RMK A01 T00381091  RH  038%=      5-min Rain = 0
KPD2 111746Z 34020G25KT 04/M09 A3017 RMK A01 T00411089  RH  038%=      5-min Rain = 0
KPD2 111747Z 35018G24KT 04/M09 A3017 RMK A01 T00421089  RH  038%=      5-min Rain = 0
KPD2 111748Z 35012G20KT 04/M09 A3017 RMK A01 T00431090  RH  038%=      5-min Rain = 0
KPD2 111749Z 33012G21KT 05/M09 A3016 RMK A01 T00451087  RH  038%=      5-min Rain = 0
KPD2 111750Z 34014G19KT 05/M09 A3016 RMK A01 T00471087  RH  037%=      5-min Rain = 0
KPD2 111751Z 34009G14KT 05/M09 A3017 RMK A01 T00481087  RH  037%=      5-min Rain = 0
KPD2 111752Z 36012G18KT 05/M09 A3017 RMK A01 T00501086  RH  037%=      5-min Rain = 0
KPD2 111753Z 33013KT 05/M09 A3017 RMK A01 T00521085  RH  036%=      5-min Rain = 0
KPD2 111754Z 33017G23KT 05/M09 A3017 RMK A01 T00531086  RH  036%=      5-min Rain = 0
KPD2 111755Z 34015KT 05/M09 A3016 RMK A01 T00531087  RH  036%=      5-min Rain = 0
KPD2 111756Z 33017G25KT 05/M09 A3016 RMK A01 T00511088  RH  036%=      5-min Rain = 0
KPD2 111757Z 32017G22KT 05/M09 A3016 RMK A01 T00501088  RH  036%=      5-min Rain = 0
KPD2 111758Z 32017KT 05/M09 A3017 RMK A01 T00501089  RH  036%=      5-min Rain = 0
KPD2 111759Z 33020G31KT 05/M09 A3017 RMK A01 T00491089  RH  036%=      5-min Rain = 0
KPD2 111800Z 32021G28KT 05/M09 A3016 RMK A01 T00481090  RH  036%=      5-min Rain = 0
KPD2 111801Z 33017G25KT 05/M09 A3016 RMK A01 T00471090  RH  036%=      5-min Rain = 0
KPD2 111802Z 34025G32KT 05/M09 A3017 RMK A01 T00481090  RH  036%=      5-min Rain = 0
KPD2 111803Z 33024G30KT 05/M09 A3017 RMK A01 T00471091  RH  036%=      5-min Rain = 0
KPD2 111804Z 33019G27KT 05/M09 A3017 RMK A01 T00461092  RH  036%=      5-min Rain = 0
KPD2 111805Z 33015G21KT 05/M09 A3017 RMK A01 T00471091  RH  036%=      5-min Rain = 0
KPD2 111806Z 34016G23KT 05/M09 A3017 RMK A01 T00491088  RH  036%=      5-min Rain = 0
KPD2 111807Z 34017G22KT 05/M09 A3017 RMK A01 T00511089  RH  036%=      5-min Rain = 0
KPD2 111808Z 34021G28KT 05/M09 A3017 RMK A01 T00521089  RH  035%=      5-min Rain = 0
KPD2 111809Z 33019G24KT 05/M09 A3017 RMK A01 T00511090  RH  035%=      5-min Rain = 0
KPD2 111810Z 35018G24KT 05/M09 A3016 RMK A01 T00501089  RH  036%=      5-min Rain = 0
KPD2 111811Z 35015G21KT 05/M09 A3017 RMK A01 T00501089  RH  036%=      5-min Rain = 0
KPD2 111812Z 31018G29KT 05/M09 A3016 RMK A01 T00511088  RH  036%=      5-min Rain = 0
KPD2 111813Z 34018G24KT 05/M09 A3016 RMK A01 T00511090  RH  035%=      5-min Rain = 0
KPD2 111814Z 34016G27KT 05/M09 A3016 RMK A01 T00501089  RH  036%=      5-min Rain = 0
KPD2 111815Z 33014G21KT 05/M09 A3016 RMK A01 T00531087  RH  036%=      5-min Rain = 0
KPD2 111816Z 32013KT 06/M09 A3016 RMK A01 T00551087  RH  035%=      5-min Rain = 0
KPD2 111817Z 35010KT 06/M09 A3017 RMK A01 T00561086  RH  035%=      5-min Rain = 0
KPD2 111818Z 34010G15KT 06/M08 A3017 RMK A01 T00601083  RH  035%=      5-min Rain = 0
KPD2 111819Z 34014KT 06/M08 A3017 RMK A01 T00631084  RH  034%=      5-min Rain = 0
KPD2 111820Z 33017G22KT 06/M09 A3016 RMK A01 T00641085  RH  034%=      5-min Rain = 0
KPD2 111821Z 34015G20KT 06/M09 A3016 RMK A01 T00611088  RH  033%=      5-min Rain = 0
KPD2 111822Z 34013G23KT 06/M09 A3016 RMK A01 T00611087  RH  034%=      5-min Rain = 0
KPD2 111823Z 32012G18KT 06/M09 A3016 RMK A01 T00611087  RH  034%=      5-min Rain = 0
KPD2 111824Z 32016G23KT 06/M09 A3016 RMK A01 T00611087  RH  034%=      5-min Rain = 0
KPD2 111825Z 34017G22KT 06/M09 A3017 RMK A01 T00601087  RH  034%=      5-min Rain = 0
KPD2 111826Z 35019G25KT 06/M09 A3017 RMK A01 T00621086  RH  034%=      5-min Rain = 0
KPD2 111827Z 34016G22KT 06/M09 A3016 RMK A01 T00591089  RH  034%=      5-min Rain = 0
KPD2 111828Z 34016G21KT 06/M09 A3016 RMK A01 T00581088  RH  034%=      5-min Rain = 0
KPD2 111829Z 34013KT 06/M09 A3017 RMK A01 T00591087  RH  034%=      5-min Rain = 0
KPD2 111830Z 34012G17KT 06/M09 A3016 RMK A01 T00611085  RH  034%=      5-min Rain = 0
KPD2 111831Z 34021KT 06/M09 A3017 RMK A01 T00631085  RH  034%=      5-min Rain = 0
KPD2 111832Z 33020G27KT 06/M09 A3016 RMK A01 T00591089  RH  034%=      5-min Rain = 0
KPD2 111833Z 31018G30KT 06/M09 A3016 RMK A01 T00581088  RH  034%=      5-min Rain = 0
KPD2 111834Z 33018G27KT 06/M09 A3016 RMK A01 T00591087  RH  034%=      5-min Rain = 0
KPD2 111835Z 32011KT 06/M09 A3017 RMK A01 T00591087  RH  034%=      5-min Rain = 0
KPD2 111836Z 34010KT 06/M08 A3017 RMK A01 T00621083  RH  035%=      5-min Rain = 0
KPD2 111837Z 33016G23KT 07/M08 A3017 RMK A01 T00661082  RH  034%=      5-min Rain = 0
KPD2 111838Z 32015G22KT 07/M09 A3016 RMK A01 T00661085  RH  033%=      5-min Rain = 0
KPD2 111839Z 34018G24KT 07/M09 A3016 RMK A01 T00651085  RH  033%=      5-min Rain = 0
KPD2 111840Z 33014KT 07/M09 A3016 RMK A01 T00651085  RH  033%=      5-min Rain = 0
KPD2 111841Z 34017G25KT 07/M08 A3017 RMK A01 T00661084  RH  033%=      5-min Rain = 0
KPD2 111842Z 34015G22KT 07/M09 A3017 RMK A01 T00651086  RH  033%=      5-min Rain = 0
KPD2 111843Z 36019G29KT 07/M08 A3017 RMK A01 T00671084  RH  033%=      5-min Rain = 0
KPD2 111844Z 35024G32KT 07/M09 A3017 RMK A01 T00671086  RH  033%=      5-min Rain = 0
KPD2 111845Z 34022G28KT 06/M09 A3017 RMK A01 T00631090  RH  033%=      5-min Rain = 0
KPD2 111846Z 34018G23KT 06/M09 A3016 RMK A01 T00611089  RH  033%=      5-min Rain = 0
KPD2 111847Z 33018G26KT 06/M09 A3016 RMK A01 T00621087  RH  033%=      5-min Rain = 0
KPD2 111848Z 33020KT 06/M09 A3016 RMK A01 T00631088  RH  033%=      5-min Rain = 0
KPD2 111849Z 33016G21KT 06/M09 A3016 RMK A01 T00621089  RH  033%=      5-min Rain = 0
KPD2 111850Z 35017G25KT 06/M09 A3016 RMK A01 T00641085  RH  033%=      5-min Rain = 0
KPD2 111851Z 35019G24KT 06/M09 A3016 RMK A01 T00641087  RH  033%=      5-min Rain = 0
KPD2 111852Z 35015G21KT 06/M09 A3016 RMK A01 T00621088  RH  033%=      5-min Rain = 0
KPD2 111853Z 01016G21KT 06/M09 A3016 RMK A01 T00621087  RH  034%=      5-min Rain = 0
KPD2 111854Z 34011KT 06/M08 A3016 RMK A01 T00641084  RH  034%=      5-min Rain = 0
KPD2 111855Z 34017G29KT 07/M08 A3016 RMK A01 T00681082  RH  033%=      5-min Rain = 0
KPD2 111856Z 34017G24KT 07/M09 A3016 RMK A01 T00691088  RH  032%=      5-min Rain = 0
KPD2 111857Z 34016G21KT 07/M09 A3016 RMK A01 T00681090  RH  031%=      5-min Rain = 0
KPD2 111858Z 32017G25KT 07/M09 A3016 RMK A01 T00681091  RH  031%=      5-min Rain = 0
KPD2 111859Z 33013G20KT 07/M09 A3016 RMK A01 T00671091  RH  031%=      5-min Rain = 0
KPD2 111900Z 33013G18KT 07/M09 A3016 RMK A01 T00701089  RH  031%=      5-min Rain = 0
KPD2 111901Z 00018KT 07/M09 A3016 RMK A01 T00691091  RH  031%=      5-min Rain = 0
KPD2 111902Z 34015G22KT 07/M09 A3016 RMK A01 T00681091  RH  031%=      5-min Rain = 0
KPD2 111903Z 34014KT 07/M09 A3016 RMK A01 T00691090  RH  031%=      5-min Rain = 0
KPD2 111904Z 35013G18KT 07/M09 A3016 RMK A01 T00701090  RH  031%=      5-min Rain = 0
KPD2 111905Z 35016G21KT 07/M09 A3016 RMK A01 T00691090  RH  031%=      5-min Rain = 0
KPD2 111906Z 34017G26KT 07/M09 A3016 RMK A01 T00701089  RH  031%=      5-min Rain = 0
KPD2 111907Z 33020G25KT 07/M09 A3016 RMK A01 T00691090  RH  031%=      5-min Rain = 0
KPD2 111908Z 34020G25KT 07/M09 A3016 RMK A01 T00671092  RH  031%=      5-min Rain = 0
KPD2 111909Z 33016KT 07/M09 A3016 RMK A01 T00671090  RH  032%=      5-min Rain = 0
KPD2 111910Z 35018KT 07/M09 A3016 RMK A01 T00681089  RH  032%=      5-min Rain = 0
KPD2 111911Z 34017G23KT 07/M09 A3016 RMK A01 T00691089  RH  031%=      5-min Rain = 0
KPD2 111912Z 33015KT 07/M09 A3016 RMK A01 T00691089  RH  032%=      5-min Rain = 0
KPD2 111913Z 33012KT 07/M09 A3016 RMK A01 T00691088  RH  032%=      5-min Rain = 0
KPD2 111914Z 00016G23KT 07/M09 A3016 RMK A01 T00731085  RH  032%=      5-min Rain = 0
KPD2 111915Z 35014G20KT 07/M09 A3016 RMK A01 T00731087  RH  031%=      5-min Rain = 0
KPD2 111916Z 35017G23KT 07/M09 A3015 RMK A01 T00741087  RH  031%=      5-min Rain = 0
KPD2 111917Z 36017G23KT 07/M09 A3015 RMK A01 T00721089  RH  031%=      5-min Rain = 0
KPD2 111918Z 34013G18KT 07/M09 A3015 RMK A01 T00731086  RH  031%=      5-min Rain = 0
KPD2 111919Z 34015KT 08/M09 A3015 RMK A01 T00771085  RH  031%=      5-min Rain = 0
KPD2 111920Z 34015KT 08/M09 A3015 RMK A01 T00771086  RH  030%=      5-min Rain = 0
KPD2 111921Z 34013G18KT 08/M09 A3015 RMK A01 T00761089  RH  030%=      5-min Rain = 0
KPD2 111922Z 35015KT 08/M09 A3015 RMK A01 T00751088  RH  030%=      5-min Rain = 0
KPD2 111923Z 34014G21KT 08/M09 A3015 RMK A01 T00761087  RH  030%=      5-min Rain = 0
KPD2 111924Z 34015KT 08/M09 A3015 RMK A01 T00751088  RH  030%=      5-min Rain = 0
KPD2 111925Z 33013G18KT 08/M09 A3015 RMK A01 T00761087  RH  030%=      5-min Rain = 0
KPD2 111926Z 35012G18KT 08/M09 A3016 RMK A01 T00781086  RH  030%=      5-min Rain = 0
KPD2 111927Z 34013G20KT 08/M09 A3015 RMK A01 T00801086  RH  030%=      5-min Rain = 0
KPD2 111928Z 34018G25KT 08/M09 A3015 RMK A01 T00811086  RH  030%=      5-min Rain = 0
KPD2 111929Z 34017KT 08/M09 A3015 RMK A01 T00791087  RH  030%=      5-min Rain = 0
KPD2 111930Z 34016G24KT 08/M09 A3015 RMK A01 T00781088  RH  030%=      5-min Rain = 0
KPD2 111931Z 33017G23KT 08/M09 A3015 RMK A01 T00771088  RH  030%=      5-min Rain = 0
KPD2 111932Z 34014G21KT 08/M09 A3015 RMK A01 T00761089  RH  030%=      5-min Rain = 0
KPD2 111933Z 33013KT 08/M09 A3015 RMK A01 T00761088  RH  030%=      5-min Rain = 0
KPD2 111934Z 35014G19KT 08/M09 A3015 RMK A01 T00761088  RH  030%=      5-min Rain = 0
KPD2 111935Z 33012KT 08/M09 A3015 RMK A01 T00751087  RH  031%=      5-min Rain = 0
KPD2 111936Z 31016G23KT 08/M08 A3015 RMK A01 T00791084  RH  030%=      5-min Rain = 0
KPD2 111937Z 33019G27KT 08/M09 A3015 RMK A01 T00801088  RH  029%=      5-min Rain = 0
KPD2 111938Z 33015G22KT 08/M09 A3015 RMK A01 T00781091  RH  029%=      5-min Rain = 0
KPD2 111939Z 35015G24KT 08/M09 A3015 RMK A01 T00761091  RH  030%=      5-min Rain = 0
KPD2 111940Z 32012KT 08/M09 A3015 RMK A01 T00791087  RH  030%=      5-min Rain = 0
KPD2 111941Z 33016G21KT 08/M09 A3015 RMK A01 T00811086  RH  030%=      5-min Rain = 0
KPD2 111942Z 34011G16KT 08/M09 A3015 RMK A01 T00831086  RH  029%=      5-min Rain = 0
KPD2 111943Z 36017G24KT 08/M09 A3015 RMK A01 T00831087  RH  029%=      5-min Rain = 0
KPD2 111944Z 00018G25KT 08/M09 A3015 RMK A01 T00831088  RH  029%=      5-min Rain = 0
KPD2 111945Z 35010G19KT 08/M09 A3015 RMK A01 T00821088  RH  029%=      5-min Rain = 0
KPD2 111946Z 34008G13KT 09/M08 A3015 RMK A01 T00851084  RH  029%=      5-min Rain = 0
KPD2 111947Z 35012G19KT 09/M08 A3015 RMK A01 T00891083  RH  029%=      5-min Rain = 0
KPD2 111948Z 34012G18KT 09/M09 A3015 RMK A01 T00881086  RH  028%=      5-min Rain = 0
KPD2 111949Z 32016G22KT 09/M09 A3015 RMK A01 T00871087  RH  028%=      5-min Rain = 0
KPD2 111950Z 32020G25KT 09/M09 A3015 RMK A01 T00861089  RH  028%=      5-min Rain = 0
KPD2 111951Z 32015KT 08/M09 A3015 RMK A01 T00831091  RH  028%=      5-min Rain = 0
KPD2 111952Z 33013KT 08/M09 A3015 RMK A01 T00821090  RH  029%=      5-min Rain = 0
KPD2 111953Z 34012G19KT 08/M09 A3015 RMK A01 T00841087  RH  029%=      5-min Rain = 0
KPD2 111954Z 34017KT 09/M09 A3015 RMK A01 T00871086  RH  029%=      5-min Rain = 0
KPD2 111955Z 33020G25KT 09/M09 A3015 RMK A01 T00861088  RH  028%=      5-min Rain = 0
KPD2 111956Z 33014KT 08/M09 A3015 RMK A01 T00831091  RH  028%=      5-min Rain = 0
KPD2 111957Z 31018KT 08/M09 A3015 RMK A01 T00831089  RH  029%=      5-min Rain = 0
KPD2 111958Z 34015G20KT 08/M09 A3015 RMK A01 T00821090  RH  029%=      5-min Rain = 0
KPD2 111959Z 34013KT 08/M09 A3015 RMK A01 T00821089  RH  029%=      5-min Rain = 0
KPD2 112000Z 34012G19KT 08/M09 A3015 RMK A01 T00831087  RH  029%=      5-min Rain = 0
KPD2 112001Z 34017G22KT 09/M09 A3015 RMK A01 T00851086  RH  029%=      5-min Rain = 0
KPD2 112002Z 33015KT 08/M09 A3015 RMK A01 T00831088  RH  029%=      5-min Rain = 0
KPD2 112003Z 33014G19KT 08/M09 A3015 RMK A01 T00831087  RH  029%=      5-min Rain = 0
KPD2 112004Z 31013G19KT 08/M09 A3015 RMK A01 T00841087  RH  029%=      5-min Rain = 0
KPD2 112005Z 34013G20KT 09/M09 A3015 RMK A01 T00851086  RH  029%=      5-min Rain = 0
KPD2 112006Z 35016G24KT 09/M09 A3015 RMK A01 T00871085  RH  029%=      5-min Rain = 0
KPD2 112007Z 33016G26KT 09/M09 A3015 RMK A01 T00851087  RH  029%=      5-min Rain = 0
KPD2 112008Z 33019G24KT 08/M09 A3015 RMK A01 T00831089  RH  029%=      5-min Rain = 0
KPD2 112009Z 35014G19KT 08/M09 A3015 RMK A01 T00811088  RH  029%=      5-min Rain = 0
KPD2 112010Z 35013G18KT 08/M09 A3015 RMK A01 T00821086  RH  029%=      5-min Rain = 0
KPD2 112011Z 35013G18KT 08/M09 A3015 RMK A01 T00841086  RH  029%=      5-min Rain = 0
KPD2 112012Z 33016G21KT 09/M09 A3015 RMK A01 T00851086  RH  029%=      5-min Rain = 0
KPD2 112013Z 32016G23KT 09/M09 A3015 RMK A01 T00851087  RH  029%=      5-min Rain = 0
KPD2 112014Z 35013G18KT 08/M09 A3015 RMK A01 T00841087  RH  029%=      5-min Rain = 0
KPD2 112015Z 36014G20KT 08/M09 A3015 RMK A01 T00831085  RH  029%=      5-min Rain = 0
KPD2 112016Z 35014KT 09/M08 A3015 RMK A01 T00861084  RH  029%=      5-min Rain = 0
KPD2 112017Z 35015G20KT 08/M09 A3015 RMK A01 T00841086  RH  029%=      5-min Rain = 0
KPD2 112018Z 36016G21KT 08/M08 A3015 RMK A01 T00841084  RH  029%=      5-min Rain = 0
KPD2 112019Z 36016KT 09/M08 A3015 RMK A01 T00861084  RH  029%=      5-min Rain = 0
KPD2 112020Z 34012G17KT 09/M08 A3015 RMK A01 T00861084  RH  029%=      5-min Rain = 0
KPD2 112021Z 33016KT 09/M09 A3015 RMK A01 T00851085  RH  029%=      5-min Rain = 0
KPD2 112022Z 33014G20KT 08/M09 A3015 RMK A01 T00841085  RH  029%=      5-min Rain = 0
KPD2 112023Z 34015KT 08/M09 A3015 RMK A01 T00841085  RH  029%=      5-min Rain = 0
KPD2 112024Z 34011G18KT 08/M08 A3015 RMK A01 T00841084  RH  030%=      5-min Rain = 0
KPD2 112025Z 00015KT 09/M08 A3015 RMK A01 T00851083  RH  030%=      5-min Rain = 0
KPD2 112026Z 01020KT 09/M08 A3015 RMK A01 T00861083  RH  029%=      5-min Rain = 0
KPD2 112027Z 34015KT 09/M08 A3015 RMK A01 T00871084  RH  029%=      5-min Rain = 0
KPD2 112028Z 34015KT 09/M08 A3015 RMK A01 T00861084  RH  029%=      5-min Rain = 0
KPD2 112029Z 34011KT 09/M08 A3016 RMK A01 T00871084  RH  029%=      5-min Rain = 0
KPD2 112030Z 32013G20KT 09/M08 A3016 RMK A01 T00881084  RH  029%=      5-min Rain = 0
KPD2 112031Z 33015KT 09/M09 A3016 RMK A01 T00891086  RH  028%=      5-min Rain = 0
KPD2 112032Z 33014KT 09/M09 A3016 RMK A01 T00871088  RH  028%=      5-min Rain = 0
KPD2 112033Z 33008G13KT 09/M09 A3016 RMK A01 T00851088  RH  028%=      5-min Rain = 0
KPD2 112034Z 35010G17KT 09/M09 A3016 RMK A01 T00861085  RH  029%=      5-min Rain = 0
KPD2 112035Z 36011G16KT 09/M09 A3016 RMK A01 T00891086  RH  028%=      5-min Rain = 0
KPD2 112036Z 36010G17KT 09/M09 A3016 RMK A01 T00891086  RH  028%=      5-min Rain = 0
KPD2 112037Z 35011KT 09/M09 A3016 RMK A01 T00921085  RH  028%=      5-min Rain = 0
KPD2 112038Z 35013KT 09/M09 A3016 RMK A01 T00921087  RH  027%=      5-min Rain = 0
KPD2 112039Z 35012KT 09/M09 A3016 RMK A01 T00931086  RH  027%=      5-min Rain = 0
KPD2 112040Z 35013KT 10/M09 A3016 RMK A01 T00951085  RH  027%=      5-min Rain = 0
KPD2 112041Z 34012KT 10/M09 A3016 RMK A01 T00951087  RH  027%=      5-min Rain = 0
KPD2 112042Z 34016G23KT 09/M09 A3017 RMK A01 T00941088  RH  027%=      5-min Rain = 0
KPD2 112043Z 34015KT 09/M09 A3016 RMK A01 T00881091  RH  027%=      5-min Rain = 0
KPD2 112044Z 34018KT 09/M09 A3016 RMK A01 T00861090  RH  028%=      5-min Rain = 0
KPD2 112045Z 35018KT 08/M09 A3016 RMK A01 T00841090  RH  028%=      5-min Rain = 0
KPD2 112046Z 34018KT 09/M09 A3017 RMK A01 T00851089  RH  028%=      5-min Rain = 0
KPD2 112047Z 33015G22KT 09/M09 A3017 RMK A01 T00861089  RH  028%=      5-min Rain = 0
KPD2 112048Z 34015KT 09/M09 A3017 RMK A01 T00871090  RH  028%=      5-min Rain = 0
KPD2 112049Z 33015KT 09/M09 A3017 RMK A01 T00871090  RH  028%=      5-min Rain = 0
KPD2 112050Z 33016G22KT 09/M09 A3017 RMK A01 T00871090  RH  028%=      5-min Rain = 0
KPD2 112051Z 33012KT 09/M09 A3017 RMK A01 T00861090  RH  028%=      5-min Rain = 0
KPD2 112052Z 35013KT 09/M09 A3017 RMK A01 T00881088  RH  028%=      5-min Rain = 0
KPD2 112053Z 34016G22KT 09/M09 A3017 RMK A01 T00891088  RH  028%=      5-min Rain = 0
KPD2 112054Z 35013KT 09/M09 A3017 RMK A01 T00881090  RH  027%=      5-min Rain = 0
KPD2 112055Z 33014KT 09/M09 A3017 RMK A01 T00871091  RH  027%=      5-min Rain = 0
KPD2 112056Z 35014KT 09/M09 A3017 RMK A01 T00881090  RH  027%=      5-min Rain = 0
KPD2 112057Z 35016G22KT 09/M09 A3017 RMK A01 T00881089  RH  028%=      5-min Rain = 0
KPD2 112058Z 35018KT 09/M09 A3017 RMK A01 T00881090  RH  027%=      5-min Rain = 0
KPD2 112059Z 34015KT 09/M09 A3017 RMK A01 T00881090  RH  027%=      5-min Rain = 0
KPD2 112100Z 33014G20KT 09/M09 A3017 RMK A01 T00871090  RH  028%=      5-min Rain = 0
KPD2 112101Z 32012KT 09/M09 A3017 RMK A01 T00891089  RH  028%=      5-min Rain = 0
KPD2 112102Z 34016G24KT 09/M09 A3017 RMK A01 T00901088  RH  027%=      5-min Rain = 0
KPD2 112103Z 01010KT 09/M09 A3018 RMK A01 T00891088  RH  028%=      5-min Rain = 0
KPD2 112104Z 34008G14KT 09/M09 A3017 RMK A01 T00901087  RH  028%=      5-min Rain = 0
KPD2 112105Z 33016G22KT 09/M09 A3017 RMK A01 T00911088  RH  027%=      5-min Rain = 0
KPD2 112106Z 32016KT 09/M09 A3017 RMK A01 T00911089  RH  027%=      5-min Rain = 0
KPD2 112107Z 32013G18KT 09/M09 A3017 RMK A01 T00891091  RH  027%=      5-min Rain = 0
KPD2 112108Z 32015KT 09/M09 A3017 RMK A01 T00881091  RH  027%=      5-min Rain = 0
KPD2 112109Z 33011KT 09/M09 A3017 RMK A01 T00891090  RH  027%=      5-min Rain = 0
KPD2 112110Z 35009G14KT 09/M09 A3018 RMK A01 T00921086  RH  027%=      5-min Rain = 0
KPD2 112111Z 34015G22KT 10/M09 A3018 RMK A01 T00951086  RH  027%=      5-min Rain = 0
KPD2 112112Z 32012G18KT 09/M09 A3017 RMK A01 T00941089  RH  027%=      5-min Rain = 0
KPD2 112113Z 33011G16KT 09/M09 A3018 RMK A01 T00911090  RH  027%=      5-min Rain = 0
KPD2 112114Z 35019KT 09/M09 A3018 RMK A01 T00901090  RH  027%=      5-min Rain = 0
KPD2 112115Z 36013KT 09/M09 A3018 RMK A01 T00901090  RH  027%=      5-min Rain = 0
KPD2 112116Z 35015G21KT 09/M09 A3018 RMK A01 T00891090  RH  027%=      5-min Rain = 0
KPD2 112117Z 35018G29KT 09/M09 A3018 RMK A01 T00881090  RH  027%=      5-min Rain = 0
KPD2 112118Z 36015G21KT 09/M09 A3018 RMK A01 T00871091  RH  028%=      5-min Rain = 0
KPD2 112119Z 34014G21KT 09/M09 A3018 RMK A01 T00861090  RH  028%=      5-min Rain = 0
KPD2 112120Z 33015KT 09/M09 A3017 RMK A01 T00871088  RH  028%=      5-min Rain = 0
KPD2 112121Z 33012G20KT 09/M09 A3017 RMK A01 T00851090  RH  028%=      5-min Rain = 0
KPD2 112122Z 33009KT 09/M09 A3017 RMK A01 T00861090  RH  028%=      5-min Rain = 0
KPD2 112123Z 33016KT 09/M09 A3017 RMK A01 T00881088  RH  028%=      5-min Rain = 0
KPD2 112124Z 34018G25KT 09/M09 A3018 RMK A01 T00881089  RH  027%=      5-min Rain = 0
KPD2 112125Z 36017G24KT 09/M09 A3018 RMK A01 T00881090  RH  027%=      5-min Rain = 0
KPD2 112126Z 35013KT 09/M09 A3018 RMK A01 T00881089  RH  028%=      5-min Rain = 0
KPD2 112127Z 33012KT 09/M09 A3018 RMK A01 T00891090  RH  027%=      5-min Rain = 0
KPD2 112128Z 33014KT 09/M09 A3018 RMK A01 T00891090  RH  027%=      5-min Rain = 0
KPD2 112129Z 33014G19KT 09/M09 A3018 RMK A01 T00891090  RH  027%=      5-min Rain = 0
KPD2 112130Z 32011G16KT 09/M09 A3018 RMK A01 T00881091  RH  027%=      5-min Rain = 0
KPD2 112131Z 32012G17KT 09/M09 A3018 RMK A01 T00881091  RH  027%=      5-min Rain = 0
KPD2 112132Z 32011G17KT 09/M09 A3018 RMK A01 T00881091  RH  027%=      5-min Rain = 0
KPD2 112133Z 35010G16KT 09/M09 A3018 RMK A01 T00891090  RH  027%=      5-min Rain = 0
KPD2 112134Z 35008G17KT 09/M09 A3018 RMK A01 T00911088  RH  027%=      5-min Rain = 0
KPD2 112135Z 00015G22KT 09/M09 A3018 RMK A01 T00931088  RH  027%=      5-min Rain = 0
KPD2 112136Z 35013G19KT 09/M09 A3018 RMK A01 T00931089  RH  027%=      5-min Rain = 0
KPD2 112137Z 34005KT 09/M09 A3018 RMK A01 T00911091  RH  027%=      5-min Rain = 0
KPD2 112138Z 33011KT 09/M09 A3018 RMK A01 T00921089  RH  027%=      5-min Rain = 0
KPD2 112139Z 34010KT 09/M09 A3018 RMK A01 T00931088  RH  027%=      5-min Rain = 0
KPD2 112140Z 36016G23KT 09/M09 A3019 RMK A01 T00941089  RH  027%=      5-min Rain = 0
KPD2 112141Z 34016G22KT 09/M09 A3019 RMK A01 T00921091  RH  027%=      5-min Rain = 0
KPD2 112142Z 34009G15KT 09/M09 A3019 RMK A01 T00901091  RH  027%=      5-min Rain = 0
KPD2 112143Z 34015KT 09/M09 A3019 RMK A01 T00901090  RH  027%=      5-min Rain = 0
KPD2 112144Z 33011G16KT 09/M09 A3018 RMK A01 T00901090  RH  027%=      5-min Rain = 0
KPD2 112145Z 32017G22KT 09/M09 A3018 RMK A01 T00891091  RH  027%=      5-min Rain = 0
KPD2 112146Z 32018KT 09/M09 A3018 RMK A01 T00871093  RH  027%=      5-min Rain = 0
KPD2 112147Z 34016G21KT 08/M09 A3019 RMK A01 T00841093  RH  027%=      5-min Rain = 0
KPD2 112148Z 34016G21KT 08/M09 A3019 RMK A01 T00841092  RH  028%=      5-min Rain = 0
KPD2 112149Z 35014G19KT 08/M09 A3019 RMK A01 T00841091  RH  028%=      5-min Rain = 0
KPD2 112150Z 36015G20KT 09/M09 A3019 RMK A01 T00851090  RH  028%=      5-min Rain = 0
KPD2 112151Z 35011KT 09/M09 A3019 RMK A01 T00871090  RH  028%=      5-min Rain = 0
KPD2 112152Z 34009KT 09/M09 A3019 RMK A01 T00891090  RH  027%=      5-min Rain = 0
KPD2 112153Z 35014G20KT 09/M09 A3019 RMK A01 T00901091  RH  027%=      5-min Rain = 0
KPD2 112154Z 00019G26KT 09/M09 A3019 RMK A01 T00891093  RH  027%=      5-min Rain = 0
KPD2 112155Z 00016KT 09/M09 A3019 RMK A01 T00881094  RH  027%=      5-min Rain = 0
KPD2 112156Z 35017KT 09/M09 A3019 RMK A01 T00861093  RH  027%=      5-min Rain = 0
KPD2 112157Z 35015KT 09/M09 A3019 RMK A01 T00861092  RH  027%=      5-min Rain = 0
KPD2 112158Z 35013KT 09/M09 A3019 RMK A01 T00851092  RH  028%=      5-min Rain = 0
KPD2 112159Z 00013KT 09/M09 A3019 RMK A01 T00851091  RH  028%=      5-min Rain = 0
KPD2 112200Z 35015KT 09/M09 A3019 RMK A01 T00861091  RH  028%=      5-min Rain = 0
KPD2 112201Z 35017KT 09/M09 A3019 RMK A01 T00861092  RH  027%=      5-min Rain = 0
KPD2 112202Z 35016KT 09/M09 A3019 RMK A01 T00861093  RH  027%=      5-min Rain = 0
KPD2 112203Z 35014KT 09/M09 A3019 RMK A01 T00851094  RH  027%=      5-min Rain = 0
KPD2 112204Z 34010G16KT 09/M09 A3019 RMK A01 T00851093  RH  027%=      5-min Rain = 0
KPD2 112205Z 34010KT 09/M09 A3019 RMK A01 T00861093  RH  027%=      5-min Rain = 0
KPD2 112206Z 35012KT 09/M09 A3019 RMK A01 T00861093  RH  027%=      5-min Rain = 0
KPD2 112207Z 33010KT 09/M09 A3019 RMK A01 T00881093  RH  027%=      5-min Rain = 0
KPD2 112208Z 33015KT 09/M09 A3019 RMK A01 T00891093  RH  027%=      5-min Rain = 0
KPD2 112209Z 35015KT 09/M10 A3019 RMK A01 T00871095  RH  027%=      5-min Rain = 0
KPD2 112210Z 34013G19KT 09/M10 A3019 RMK A01 T00861095  RH  027%=      5-min Rain = 0
KPD2 112211Z 34011G18KT 09/M10 A302 RMK A01 T00861095  RH  027%=      5-min Rain = 0
KPD2 112212Z 35015KT 09/M09 A302 RMK A01 T00871093  RH  027%=      5-min Rain = 0
KPD2 112213Z 35016G21KT 09/M10 A302 RMK A01 T00851095  RH  027%=      5-min Rain = 0
KPD2 112214Z 35014KT 08/M10 A302 RMK A01 T00821095  RH  027%=      5-min Rain = 0
KPD2 112215Z 34013G18KT 08/M09 A302 RMK A01 T00811094  RH  028%=      5-min Rain = 0
KPD2 112216Z 34012KT 08/M09 A302 RMK A01 T00811094  RH  028%=      5-min Rain = 0
KPD2 112217Z 34012G19KT 08/M09 A302 RMK A01 T00811093  RH  028%=      5-min Rain = 0
KPD2 112218Z 36013KT 08/M09 A302 RMK A01 T00811093  RH  028%=      5-min Rain = 0
KPD2 112219Z 35011KT 08/M09 A302 RMK A01 T00811093  RH  028%=      5-min Rain = 0
KPD2 112220Z 35009KT 08/M09 A302 RMK A01 T00821092  RH  028%=      5-min Rain = 0
KPD2 112221Z 34011G16KT 08/M09 A302 RMK A01 T00831092  RH  028%=      5-min Rain = 0
KPD2 112222Z 35011KT 08/M09 A302 RMK A01 T00841092  RH  028%=      5-min Rain = 0
KPD2 112223Z 35010KT 08/M09 A302 RMK A01 T00841092  RH  028%=      5-min Rain = 0
KPD2 112224Z 33013KT 08/M09 A302 RMK A01 T00831092  RH  028%=      5-min Rain = 0
KPD2 112225Z 35013KT 08/M09 A302 RMK A01 T00831092  RH  028%=      5-min Rain = 0
KPD2 112226Z 35009KT 08/M09 A302 RMK A01 T00831092  RH  028%=      5-min Rain = 0
KPD2 112227Z 34010KT 08/M09 A302 RMK A01 T00821092  RH  028%=      5-min Rain = 0
KPD2 112228Z 33010G17KT 08/M09 A302 RMK A01 T00821092  RH  028%=      5-min Rain = 0
KPD2 112229Z 34013KT 08/M09 A302 RMK A01 T00821092  RH  028%=      5-min Rain = 0
KPD2 112230Z 33011G16KT 08/M09 A302 RMK A01 T00821092  RH  028%=      5-min Rain = 0
KPD2 112231Z 33011KT 08/M09 A302 RMK A01 T00841091  RH  028%=      5-min Rain = 0
KPD2 112232Z 33012KT 08/M09 A302 RMK A01 T00841091  RH  028%=      5-min Rain = 0
KPD2 112233Z 33011KT 08/M09 A302 RMK A01 T00831092  RH  028%=      5-min Rain = 0
KPD2 112234Z 36010KT 08/M09 A302 RMK A01 T00821092  RH  028%=      5-min Rain = 0
KPD2 112235Z 33010G16KT 08/M09 A302 RMK A01 T00821091  RH  028%=      5-min Rain = 0
KPD2 112236Z 32012KT 08/M09 A302 RMK A01 T00831091  RH  028%=      5-min Rain = 0
KPD2 112237Z 31012KT 08/M09 A302 RMK A01 T00821091  RH  028%=      5-min Rain = 0
KPD2 112238Z 33010KT 08/M09 A302 RMK A01 T00821092  RH  028%=      5-min Rain = 0
KPD2 112239Z 34010KT 08/M09 A302 RMK A01 T00831091  RH  028%=      5-min Rain = 0
KPD2 112240Z 33008KT 08/M09 A302 RMK A01 T00831091  RH  028%=      5-min Rain = 0
KPD2 112241Z 34007KT 08/M09 A302 RMK A01 T00831091  RH  028%=      5-min Rain = 0
KPD2 112242Z 32009KT 08/M09 A302 RMK A01 T00841090  RH  028%=      5-min Rain = 0
KPD2 112243Z 32009KT 08/M09 A302 RMK A01 T00841090  RH  028%=      5-min Rain = 0
KPD2 112244Z 33008KT 08/M09 A302 RMK A01 T00831091  RH  028%=      5-min Rain = 0
KPD2 112245Z 35007KT 08/M09 A3021 RMK A01 T00821091  RH  028%=      5-min Rain = 0
KPD2 112246Z 34007KT 08/M09 A3021 RMK A01 T00821090  RH  029%=      5-min Rain = 0
KPD2 112247Z 34007KT 08/M09 A3021 RMK A01 T00821089  RH  029%=      5-min Rain = 0
KPD2 112248Z 34009KT 08/M09 A3021 RMK A01 T00821090  RH  029%=      5-min Rain = 0
KPD2 112249Z 35011KT 08/M09 A3021 RMK A01 T00821090  RH  029%=      5-min Rain = 0
KPD2 112250Z 35009KT 08/M09 A3021 RMK A01 T00811090  RH  029%=      5-min Rain = 0
KPD2 112251Z 36011KT 08/M09 A3021 RMK A01 T00811090  RH  029%=      5-min Rain = 0
KPD2 112252Z 35009KT 08/M09 A3021 RMK A01 T00801090  RH  029%=      5-min Rain = 0
KPD2 112253Z 34012KT 08/M09 A3021 RMK A01 T00791090  RH  029%=      5-min Rain = 0
KPD2 112254Z 34011KT 08/M09 A3021 RMK A01 T00791091  RH  029%=      5-min Rain = 0
KPD2 112255Z 34007KT 08/M09 A3021 RMK A01 T00781091  RH  029%=      5-min Rain = 0
KPD2 112256Z 35010G15KT 08/M09 A3021 RMK A01 T00791090  RH  029%=      5-min Rain = 0
KPD2 112257Z 34013KT 08/M09 A3021 RMK A01 T00791091  RH  029%=      5-min Rain = 0
KPD2 112258Z 34013KT 08/M09 A3021 RMK A01 T00791092  RH  029%=      5-min Rain = 0
KPD2 112259Z 34013KT 08/M09 A3021 RMK A01 T00771093  RH  029%=      5-min Rain = 0
KPD2 112300Z 33010KT 08/M09 A3021 RMK A01 T00771093  RH  029%=      5-min Rain = 0
KPD2 112301Z 35010KT 08/M09 A3021 RMK A01 T00771093  RH  029%=      5-min Rain = 0
KPD2 112302Z 35014G20KT 08/M09 A3021 RMK A01 T00771093  RH  029%=      5-min Rain = 0
KPD2 112303Z 35012G18KT 08/M09 A3021 RMK A01 T00761094  RH  029%=      5-min Rain = 0
KPD2 112304Z 34011G17KT 08/M09 A3021 RMK A01 T00761094  RH  029%=      5-min Rain = 0
KPD2 112305Z 34013KT 08/M09 A3021 RMK A01 T00751094  RH  029%=      5-min Rain = 0
KPD2 112306Z 34012G17KT 08/M09 A3021 RMK A01 T00751094  RH  029%=      5-min Rain = 0
KPD2 112307Z 34013KT 08/M09 A3021 RMK A01 T00751094  RH  029%=      5-min Rain = 0
KPD2 112308Z 36010KT 08/M09 A3021 RMK A01 T00751094  RH  029%=      5-min Rain = 0
KPD2 112309Z 36008KT 08/M09 A3022 RMK A01 T00751094  RH  029%=      5-min Rain = 0
KPD2 112310Z 33009KT 08/M09 A3022 RMK A01 T00751093  RH  029%=      5-min Rain = 0
KPD2 112311Z 35011KT 08/M09 A3022 RMK A01 T00751094  RH  029%=      5-min Rain = 0
KPD2 112312Z 34011G16KT 08/M09 A3022 RMK A01 T00751094  RH  029%=      5-min Rain = 0
KPD2 112313Z 33007KT 07/M09 A3022 RMK A01 T00741094  RH  029%=      5-min Rain = 0
KPD2 112314Z 33006KT 07/M09 A3022 RMK A01 T00731094  RH  029%=      5-min Rain = 0
KPD2 112315Z 32006KT 07/M09 A3022 RMK A01 T00731094  RH  030%=      5-min Rain = 0
KPD2 112316Z 35008KT 07/M09 A3022 RMK A01 T00731093  RH  030%=      5-min Rain = 0
KPD2 112317Z 36006KT 07/M09 A3022 RMK A01 T00721093  RH  030%=      5-min Rain = 0
KPD2 112318Z 33009KT 07/M09 A3022 RMK A01 T00721093  RH  030%=      5-min Rain = 0
KPD2 112319Z 33006KT 07/M09 A3022 RMK A01 T00701094  RH  030%=      5-min Rain = 0
KPD2 112320Z 33007KT 07/M09 A3022 RMK A01 T00681094  RH  030%=      5-min Rain = 0
KPD2 112321Z 36008KT 07/M09 A3022 RMK A01 T00681094  RH  031%=      5-min Rain = 0
KPD2 112322Z 34006KT 07/M09 A3022 RMK A01 T00671094  RH  031%=      5-min Rain = 0
KPD2 112323Z 36004KT 07/M09 A3022 RMK A01 T00661094  RH  031%=      5-min Rain = 0
KPD2 112324Z 35004KT 07/M09 A3022 RMK A01 T00651093  RH  031%=      5-min Rain = 0
KPD2 112325Z 34005KT 07/M09 A3022 RMK A01 T00651093  RH  031%=      5-min Rain = 0
KPD2 112326Z 32005KT 06/M09 A3022 RMK A01 T00641093  RH  031%=      5-min Rain = 0
KPD2 112327Z 34008G13KT 06/M09 A3022 RMK A01 T00631094  RH  031%=      5-min Rain = 0
KPD2 112328Z 34008KT 06/M09 A3022 RMK A01 T00631094  RH  032%=      5-min Rain = 0
KPD2 112329Z 34008KT 06/M09 A3022 RMK A01 T00631093  RH  032%=      5-min Rain = 0
KPD2 112330Z 33008KT 06/M09 A3022 RMK A01 T00631093  RH  032%=      5-min Rain = 0
KPD2 112331Z 35009KT 06/M09 A3022 RMK A01 T00631093  RH  032%=      5-min Rain = 0
KPD2 112332Z 35008G13KT 06/M09 A3022 RMK A01 T00631093  RH  032%=      5-min Rain = 0
KPD2 112333Z 33005KT 06/M09 A3022 RMK A01 T00631093  RH  032%=      5-min Rain = 0
KPD2 112334Z 34007KT 06/M09 A3022 RMK A01 T00631093  RH  032%=      5-min Rain = 0
KPD2 112335Z 35006KT 06/M09 A3022 RMK A01 T00621094  RH  032%=      5-min Rain = 0
KPD2 112336Z 34006KT 06/M09 A3023 RMK A01 T00621093  RH  032%=      5-min Rain = 0
KPD2 112337Z 34008KT 06/M09 A3023 RMK A01 T00611093  RH  032%=      5-min Rain = 0
KPD2 112338Z 33008KT 06/M09 A3023 RMK A01 T00611093  RH  032%=      5-min Rain = 0
KPD2 112339Z 34007KT 06/M09 A3023 RMK A01 T00611092  RH  033%=      5-min Rain = 0
KPD2 112340Z 35007KT 06/M09 A3023 RMK A01 T00611092  RH  032%=      5-min Rain = 0
KPD2 112341Z 33007KT 06/M09 A3023 RMK A01 T00601093  RH  032%=      5-min Rain = 0
KPD2 112342Z 34006KT 06/M09 A3023 RMK A01 T00601093  RH  032%=      5-min Rain = 0
KPD2 112343Z 34009KT 06/M09 A3023 RMK A01 T00591093  RH  033%=      5-min Rain = 0
KPD2 112344Z 34007KT 06/M09 A3023 RMK A01 T00591092  RH  033%=      5-min Rain = 0
KPD2 112345Z 35010KT 06/M09 A3023 RMK A01 T00581092  RH  033%=      5-min Rain = 0
KPD2 112346Z 35007KT 06/M09 A3023 RMK A01 T00591092  RH  033%=      5-min Rain = 0
KPD2 112347Z 34006KT 06/M09 A3023 RMK A01 T00591092  RH  033%=      5-min Rain = 0
KPD2 112348Z 33006KT 06/M09 A3023 RMK A01 T00591092  RH  033%=      5-min Rain = 0
KPD2 112349Z 34007KT 06/M09 A3023 RMK A01 T00581093  RH  033%=      5-min Rain = 0
KPD2 112350Z 33006KT 06/M09 A3023 RMK A01 T00561094  RH  033%=      5-min Rain = 0
KPD2 112351Z 34005KT 06/M09 A3023 RMK A01 T00551094  RH  033%=      5-min Rain = 0
KPD2 112352Z 33006KT 05/M09 A3023 RMK A01 T00541093  RH  034%=      5-min Rain = 0
KPD2 112353Z 33004KT 05/M09 A3023 RMK A01 T00531093  RH  034%=      5-min Rain = 0
KPD2 112354Z 33004KT 05/M09 A3023 RMK A01 T00531093  RH  034%=      5-min Rain = 0
KPD2 112355Z 33006KT 05/M09 A3023 RMK A01 T00531093  RH  034%=      5-min Rain = 0
KPD2 112356Z 33007KT 05/M09 A3023 RMK A01 T00521093  RH  034%=      5-min Rain = 0
KPD2 112357Z 33006KT 05/M09 A3023 RMK A01 T00521093  RH  034%=      5-min Rain = 0
KPD2 112358Z 33007KT 05/M09 A3023 RMK A01 T00521092  RH  034%=      5-min Rain = 0
KPD2 112359Z 33006KT 05/M09 A3024 RMK A01 T00521092  RH  034%=      5-min Rain = 0
KPD2 120000Z 33004KT 05/M09 A3024 RMK A01 T00531092  RH  034%=      5-min Rain = 0
KPD2 120001Z 32004KT 05/M09 A3024 RMK A01 T00531093  RH  034%=      5-min Rain = 0
KPD2 120002Z 33005KT 05/M09 A3024 RMK A01 T00511094  RH  034%=      5-min Rain = 0
KPD2 120003Z 32004KT 05/M09 A3024 RMK A01 T00501094  RH  034%=      5-min Rain = 0
KPD2 120004Z 33005KT 05/M09 A3024 RMK A01 T00501094  RH  035%=      5-min Rain = 0
KPD2 120005Z 32006KT 05/M09 A3024 RMK A01 T00491094  RH  035%=      5-min Rain = 0
KPD2 120006Z 33005KT 05/M09 A3024 RMK A01 T00491094  RH  035%=      5-min Rain = 0
KPD2 120007Z 31005KT 05/M09 A3024 RMK A01 T00481094  RH  035%=      5-min Rain = 0
KPD2 120008Z 32006KT 05/M09 A3025 RMK A01 T00481094  RH  035%=      5-min Rain = 0
KPD2 120009Z 32006KT 05/M09 A3025 RMK A01 T00491093  RH  035%=      5-min Rain = 0
KPD2 120010Z 31006KT 05/M09 A3025 RMK A01 T00491093  RH  035%=      5-min Rain = 0
KPD2 120011Z 32007KT 05/M09 A3025 RMK A01 T00491094  RH  035%=      5-min Rain = 0
KPD2 120012Z 33006KT 05/M09 A3025 RMK A01 T00491094  RH  035%=      5-min Rain = 0
KPD2 120013Z 32005KT 05/M09 A3025 RMK A01 T00501094  RH  035%=      5-min Rain = 0
KPD2 120014Z 33003KT 05/M09 A3025 RMK A01 T00501094  RH  035%=      5-min Rain = 0
KPD2 120015Z 34005KT 05/M09 A3025 RMK A01 T00491094  RH  035%=      5-min Rain = 0
KPD2 120016Z 34004KT 05/M09 A3025 RMK A01 T00491094  RH  035%=      5-min Rain = 0
KPD2 120017Z 32003KT 05/M10 A3025 RMK A01 T00481095  RH  035%=      5-min Rain = 0
KPD2 120018Z 31005KT 05/M09 A3025 RMK A01 T00471094  RH  035%=      5-min Rain = 0
KPD2 120019Z 34004KT 05/M09 A3025 RMK A01 T00471094  RH  035%=      5-min Rain = 0
KPD2 120020Z 34005KT 05/M09 A3025 RMK A01 T00471094  RH  035%=      5-min Rain = 0
KPD2 120021Z 34003KT 05/M10 A3025 RMK A01 T00471095  RH  035%=      5-min Rain = 0
KPD2 120022Z 33004KT 05/M10 A3025 RMK A01 T00461095  RH  035%=      5-min Rain = 0
KPD2 120023Z 35007KT 05/M10 A3025 RMK A01 T00451095  RH  035%=      5-min Rain = 0
KPD2 120024Z 33006KT 05/M10 A3025 RMK A01 T00451096  RH  035%=      5-min Rain = 0
KPD2 120025Z 34006KT 05/M10 A3025 RMK A01 T00451095  RH  035%=      5-min Rain = 0
KPD2 120026Z 34005KT 05/M10 A3025 RMK A01 T00451095  RH  035%=      5-min Rain = 0
KPD2 120027Z 34005KT 04/M10 A3025 RMK A01 T00441096  RH  035%=      5-min Rain = 0
KPD2 120028Z 34005KT 04/M10 A3025 RMK A01 T00431096  RH  035%=      5-min Rain = 0
KPD2 120029Z 35005KT 04/M10 A3025 RMK A01 T00431096  RH  036%=      5-min Rain = 0
KPD2 120030Z 35005KT 04/M10 A3025 RMK A01 T00421097  RH  036%=      5-min Rain = 0
KPD2 120031Z 36004KT 04/M10 A3025 RMK A01 T00401097  RH  036%=      5-min Rain = 0
KPD2 120032Z 00005KT 04/M10 A3025 RMK A01 T00391098  RH  036%=      5-min Rain = 0
KPD2 120033Z 36005KT 04/M10 A3025 RMK A01 T00381098  RH  036%=      5-min Rain = 0
KPD2 120034Z 01007KT 04/M10 A3025 RMK A01 T00371098  RH  037%=      5-min Rain = 0
KPD2 120035Z 36006KT 04/M10 A3025 RMK A01 T00361098  RH  037%=      5-min Rain = 0
KPD2 120036Z 00006KT 04/M10 A3025 RMK A01 T00351098  RH  037%=      5-min Rain = 0
KPD2 120037Z 36006KT 04/M10 A3025 RMK A01 T00351098  RH  037%=      5-min Rain = 0
KPD2 120038Z 36006KT 04/M10 A3025 RMK A01 T00351097  RH  037%=      5-min Rain = 0
KPD2 120039Z 36006KT 03/M10 A3025 RMK A01 T00341098  RH  037%=      5-min Rain = 0
KPD2 120040Z 36007KT 03/M10 A3025 RMK A01 T00341098  RH  038%=      5-min Rain = 0
KPD2 120041Z 35007KT 03/M10 A3025 RMK A01 T00341097  RH  038%=      5-min Rain = 0
KPD2 120042Z 36007KT 03/M10 A3025 RMK A01 T00331098  RH  038%=      5-min Rain = 0
KPD2 120043Z 36007KT 03/M10 A3025 RMK A01 T00331098  RH  038%=      5-min Rain = 0
KPD2 120044Z 35007KT 03/M10 A3025 RMK A01 T00321098  RH  038%=      5-min Rain = 0
KPD2 120045Z 35006KT 03/M10 A3025 RMK A01 T00321098  RH  038%=      5-min Rain = 0
KPD2 120046Z 35007KT 03/M10 A3025 RMK A01 T00311098  RH  038%=      5-min Rain = 0
KPD2 120047Z 35007KT 03/M10 A3025 RMK A01 T00311098  RH  038%=      5-min Rain = 0
KPD2 120048Z 35007KT 03/M10 A3025 RMK A01 T00311097  RH  038%=      5-min Rain = 0
KPD2 120049Z 34007KT 03/M10 A3025 RMK A01 T00311097  RH  038%=      5-min Rain = 0
KPD2 120050Z 34006KT 03/M10 A3025 RMK A01 T00311098  RH  038%=      5-min Rain = 0
KPD2 120051Z 34006KT 03/M10 A3026 RMK A01 T00311098  RH  038%=      5-min Rain = 0
KPD2 120052Z 33006KT 03/M10 A3026 RMK A01 T00311098  RH  038%=      5-min Rain = 0
KPD2 120053Z 33006KT 03/M10 A3026 RMK A01 T00301098  RH  038%=      5-min Rain = 0
KPD2 120054Z 33006KT 03/M10 A3026 RMK A01 T00301098  RH  038%=      5-min Rain = 0
KPD2 120055Z 33005KT 03/M10 A3026 RMK A01 T00301098  RH  038%=      5-min Rain = 0
KPD2 120056Z 34005KT 03/M10 A3026 RMK A01 T00301098  RH  038%=      5-min Rain = 0
KPD2 120057Z 33005KT 03/M10 A3026 RMK A01 T00291098  RH  039%=      5-min Rain = 0
KPD2 120058Z 34006KT 03/M10 A3026 RMK A01 T00281099  RH  039%=      5-min Rain = 0
KPD2 120059Z 34006KT 03/M10 A3026 RMK A01 T00281098  RH  039%=      5-min Rain = 0
KPD2 120100Z 34006KT 03/M10 A3026 RMK A01 T00271098  RH  039%=      5-min Rain = 0
KPD2 120101Z 35006KT 03/M10 A3026 RMK A01 T00271098  RH  039%=      5-min Rain = 0
KPD2 120102Z 35006KT 03/M10 A3026 RMK A01 T00271098  RH  039%=      5-min Rain = 0
KPD2 120103Z 35006KT 03/M10 A3026 RMK A01 T00271098  RH  039%=      5-min Rain = 0
KPD2 120104Z 35006KT 03/M10 A3026 RMK A01 T00271098  RH  039%=      5-min Rain = 0
KPD2 120105Z 36006KT 03/M10 A3026 RMK A01 T00271098  RH  039%=      5-min Rain = 0
KPD2 120106Z 00007KT 03/M10 A3026 RMK A01 T00261098  RH  039%=      5-min Rain = 0
KPD2 120107Z 36007KT 03/M10 A3026 RMK A01 T00261098  RH  039%=      5-min Rain = 0
KPD2 120108Z 00008KT 03/M10 A3026 RMK A01 T00261098  RH  039%=      5-min Rain = 0
KPD2 120109Z 01007KT 03/M10 A3026 RMK A01 T00261098  RH  040%=      5-min Rain = 0
KPD2 120110Z 00007KT 03/M10 A3026 RMK A01 T00271097  RH  040%=      5-min Rain = 0
KPD2 120111Z 36006KT 03/M10 A3026 RMK A01 T00271098  RH  039%=      5-min Rain = 0
KPD2 120112Z 36006KT 03/M10 A3026 RMK A01 T00271098  RH  039%=      5-min Rain = 0
KPD2 120113Z 36007KT 03/M10 A3026 RMK A01 T00271098  RH  039%=      5-min Rain = 0
KPD2 120114Z 35006KT 03/M10 A3026 RMK A01 T00271098  RH  039%=      5-min Rain = 0
KPD2 120115Z 35007KT 03/M10 A3026 RMK A01 T00271098  RH  039%=      5-min Rain = 0
KPD2 120116Z 35006KT 03/M10 A3026 RMK A01 T00271098  RH  039%=      5-min Rain = 0
KPD2 120117Z 35007KT 03/M10 A3026 RMK A01 T00271097  RH  039%=      5-min Rain = 0
KPD2 120118Z 34006KT 03/M10 A3026 RMK A01 T00271098  RH  039%=      5-min Rain = 0
KPD2 120119Z 34006KT 03/M10 A3026 RMK A01 T00271098  RH  039%=      5-min Rain = 0
KPD2 120120Z 33006KT 03/M10 A3026 RMK A01 T00261098  RH  039%=      5-min Rain = 0
KPD2 120121Z 34006KT 03/M10 A3026 RMK A01 T00261098  RH  039%=      5-min Rain = 0
KPD2 120122Z 34006KT 03/M10 A3026 RMK A01 T00251099  RH  040%=      5-min Rain = 0
KPD2 120123Z 33006KT 03/M10 A3026 RMK A01 T00251098  RH  040%=      5-min Rain = 0
KPD2 120124Z 33005KT 02/M10 A3026 RMK A01 T00241099  RH  040%=      5-min Rain = 0
KPD2 120125Z 34006KT 02/M10 A3027 RMK A01 T00241098  RH  040%=      5-min Rain = 0
KPD2 120126Z 33006KT 02/M10 A3027 RMK A01 T00241099  RH  040%=      5-min Rain = 0
KPD2 120127Z 33006KT 02/M10 A3027 RMK A01 T00231099  RH  040%=      5-min Rain = 0
KPD2 120128Z 33006KT 02/M10 A3027 RMK A01 T00221099  RH  040%=      5-min Rain = 0
KPD2 120129Z 33006KT 02/M10 A3027 RMK A01 T00221099  RH  040%=      5-min Rain = 0
KPD2 120130Z 34006KT 02/M10 A3027 RMK A01 T00211099  RH  041%=      5-min Rain = 0
KPD2 120131Z 34006KT 02/M10 A3027 RMK A01 T00211099  RH  041%=      5-min Rain = 0
KPD2 120132Z 35005KT 02/M10 A3027 RMK A01 T00211099  RH  041%=      5-min Rain = 0
KPD2 120133Z 35004KT 02/M10 A3027 RMK A01 T00201100  RH  041%=      5-min Rain = 0
KPD2 120134Z 35004KT 02/M10 A3027 RMK A01 T00191100  RH  041%=      5-min Rain = 0
KPD2 120135Z 35005KT 02/M10 A3027 RMK A01 T00181100  RH  041%=      5-min Rain = 0
KPD2 120136Z 36005KT 02/M10 A3027 RMK A01 T00181100  RH  041%=      5-min Rain = 0
KPD2 120137Z 36005KT 02/M10 A3027 RMK A01 T00181099  RH  042%=      5-min Rain = 0
KPD2 120138Z 00006KT 02/M10 A3027 RMK A01 T00171100  RH  041%=      5-min Rain = 0
KPD2 120139Z 01005KT 02/M10 A3027 RMK A01 T00181099  RH  042%=      5-min Rain = 0
KPD2 120140Z 01006KT 02/M10 A3027 RMK A01 T00181099  RH  042%=      5-min Rain = 0
KPD2 120141Z 01007KT 02/M10 A3027 RMK A01 T00181098  RH  042%=      5-min Rain = 0
KPD2 120142Z 01006KT 02/M10 A3026 RMK A01 T00191098  RH  042%=      5-min Rain = 0
KPD2 120143Z 00006KT 02/M10 A3026 RMK A01 T00191098  RH  041%=      5-min Rain = 0
KPD2 120144Z 36005KT 02/M10 A3027 RMK A01 T00191099  RH  041%=      5-min Rain = 0
KPD2 120145Z 36006KT 02/M10 A3027 RMK A01 T00191099  RH  041%=      5-min Rain = 0
KPD2 120146Z 35006KT 02/M10 A3027 RMK A01 T00191099  RH  041%=      5-min Rain = 0
KPD2 120147Z 35005KT 02/M10 A3027 RMK A01 T00191099  RH  041%=      5-min Rain = 0
KPD2 120148Z 34003KT 02/M10 A3027 RMK A01 T00181099  RH  041%=      5-min Rain = 0
KPD2 120149Z 26003KT 02/M10 A3027 RMK A01 T00171101  RH  041%=      5-min Rain = 0
KPD2 120150Z 28003KT 02/M10 A3027 RMK A01 T00151103  RH  041%=      5-min Rain = 0
KPD2 120151Z 28002KT 01/M10 A3027 RMK A01 T00121104  RH  042%=      5-min Rain = 0
KPD2 120152Z 28001KT 01/M10 A3027 RMK A01 T00111104  RH  042%=      5-min Rain = 0
KPD2 120153Z 29002KT 01/M10 A3027 RMK A01 T00101102  RH  043%=      5-min Rain = 0
KPD2 120154Z 32002KT 01/M10 A3027 RMK A01 T00091102  RH  043%=      5-min Rain = 0
KPD2 120155Z 33003KT 01/M10 A3027 RMK A01 T00081102  RH  043%=      5-min Rain = 0
KPD2 120156Z 33004KT 01/M10 A3027 RMK A01 T00071103  RH  044%=      5-min Rain = 0
KPD2 120157Z 35003KT 01/M10 A3027 RMK A01 T00061103  RH  044%=      5-min Rain = 0
KPD2 120158Z 34003KT 01/M10 A3027 RMK A01 T00061102  RH  044%=      5-min Rain = 0
KPD2 120159Z 35003KT 01/M10 A3027 RMK A01 T00061102  RH  044%=      5-min Rain = 0
KPD2 120200Z 35003KT 00/M10 A3027 RMK A01 T00041104  RH  044%=      5-min Rain = 0
KPD2 120201Z 33003KT 00/M11 A3027 RMK A01 T00031105  RH  044%=      5-min Rain = 0
KPD2 120202Z 33004KT 00/M11 A3027 RMK A01 T00021105  RH  044%=      5-min Rain = 0
KPD2 120203Z 32004KT 00/M10 A3027 RMK A01 T00011104  RH  045%=      5-min Rain = 0
KPD2 120204Z 32004KT 00/M10 A3027 RMK A01 T00011104  RH  045%=      5-min Rain = 0
KPD2 120205Z 31004KT 00/M10 A3027 RMK A01 T00011104  RH  045%=      5-min Rain = 0
KPD2 120206Z 27003KT 00/M10 A3027 RMK A01 T00011103  RH  045%=      5-min Rain = 0
KPD2 120207Z 26003KT 00/M10 A3027 RMK A01 T00011104  RH  045%=      5-min Rain = 0
KPD2 120208Z 27003KT 00/10 A3027 RMK A01 T00000-104  RH  045%=      5-min Rain = 0
KPD2 120209Z 27003KT 00/10 A3028 RMK A01 T00000-102  RH  046%=      5-min Rain = 0
KPD2 120210Z 27003KT 00/M10 A3028 RMK A01 T00011102  RH  046%=      5-min Rain = 0
KPD2 120211Z 29002KT 00/10 A3028 RMK A01 T00-00-104  RH  046%=      5-min Rain = 0
KPD2 120212Z 28002KT M00/M10 A3027 RMK A01 T10011103  RH  046%=      5-min Rain = 0
KPD2 120213Z 33001KT M00/M10 A3027 RMK A01 T10021103  RH  046%=      5-min Rain = 0
KPD2 120214Z 31002KT M00/M10 A3027 RMK A01 T10031103  RH  047%=      5-min Rain = 0
KPD2 120215Z 31002KT M00/M10 A3027 RMK A01 T10031103  RH  047%=      5-min Rain = 0
KPD2 120216Z 31002KT M00/M10 A3027 RMK A01 T10041103  RH  047%=      5-min Rain = 0
KPD2 120217Z 33002KT M00/M10 A3027 RMK A01 T10041103  RH  047%=      5-min Rain = 0
KPD2 120218Z 33003KT M00/M10 A3027 RMK A01 T10041102  RH  047%=      5-min Rain = 0
KPD2 120219Z 34002KT M00/M10 A3027 RMK A01 T10031102  RH  047%=      5-min Rain = 0
KPD2 120220Z 34003KT M00/M10 A3028 RMK A01 T10041103  RH  047%=      5-min Rain = 0
KPD2 120221Z 35005KT M00/M10 A3028 RMK A01 T10041103  RH  047%=      5-min Rain = 0
KPD2 120222Z 34004KT M00/M10 A3028 RMK A01 T10041104  RH  047%=      5-min Rain = 0
KPD2 120223Z 35004KT M01/M11 A3028 RMK A01 T10061107  RH  046%=      5-min Rain = 0
KPD2 120224Z 33003KT M00/M10 A3028 RMK A01 T10031102  RH  047%=      5-min Rain = 0
KPD2 120225Z 27002KT M00/M10 A3028 RMK A01 T10021102  RH  047%=      5-min Rain = 0
KPD2 120226Z 31002KT M00/M10 A3028 RMK A01 T10031104  RH  046%=      5-min Rain = 0
KPD2 120227Z 34003KT M00/M10 A3028 RMK A01 T10031103  RH  047%=      5-min Rain = 0
KPD2 120228Z 35003KT M00/M10 A3028 RMK A01 T10041103  RH  047%=      5-min Rain = 0
KPD2 120229Z 01003KT M00/M10 A3027 RMK A01 T10041102  RH  048%=      5-min Rain = 0
KPD2 120230Z 01004KT M00/M10 A3027 RMK A01 T10031101  RH  048%=      5-min Rain = 0
KPD2 120231Z 01003KT M00/M10 A3027 RMK A01 T10031101  RH  047%=      5-min Rain = 0
KPD2 120232Z 01003KT M00/M10 A3027 RMK A01 T10011099  RH  048%=      5-min Rain = 0
KPD2 120233Z 02004KT 00/M10 A3027 RMK A01 T00011097  RH  048%=      5-min Rain = 0
KPD2 120234Z 03004KT 01/M09 A3027 RMK A01 T00061094  RH  047%=      5-min Rain = 0
KPD2 120235Z 04002KT 01/M09 A3028 RMK A01 T00101094  RH  046%=      5-min Rain = 0
KPD2 120236Z 02004KT 01/M10 A3028 RMK A01 T00121095  RH  045%=      5-min Rain = 0
KPD2 120237Z 25002KT 01/M10 A3028 RMK A01 T00121098  RH  044%=      5-min Rain = 0
KPD2 120238Z 24002KT 01/M10 A3028 RMK A01 T00071104  RH  043%=      5-min Rain = 0
KPD2 120239Z 23001KT 00/M11 A3028 RMK A01 T00031106  RH  044%=      5-min Rain = 0
KPD2 120240Z 21001KT 00/11 A3028 RMK A01 T00-00-106  RH  045%=      5-min Rain = 0
KPD2 120241Z 33001KT M00/M10 A3028 RMK A01 T10021104  RH  046%=      5-min Rain = 0
KPD2 120242Z 32001KT M00/M10 A3028 RMK A01 T10021101  RH  047%=      5-min Rain = 0
KPD2 120243Z 26001KT 00/10 A3028 RMK A01 T00000-99  RH  047%=      5-min Rain = 0
KPD2 120244Z 26001KT 00/M10 A3028 RMK A01 T00031098  RH  047%=      5-min Rain = 0
KPD2 120245Z 21000KT 01/M10 A3028 RMK A01 T00051098  RH  046%=      5-min Rain = 0
KPD2 120246Z 31000KT 01/M10 A3028 RMK A01 T00051100  RH  045%=      5-min Rain = 0
KPD2 120247Z 32001KT 00/M10 A3028 RMK A01 T00041101  RH  045%=      5-min Rain = 0
KPD2 120248Z 31001KT 00/M10 A3028 RMK A01 T00041100  RH  046%=      5-min Rain = 0
KPD2 120249Z 03002KT 00/M10 A3028 RMK A01 T00041100  RH  046%=      5-min Rain = 0
KPD2 120250Z 03004KT 01/M10 A3028 RMK A01 T00051099  RH  046%=      5-min Rain = 0
KPD2 120251Z 03004KT 01/M10 A3028 RMK A01 T00071097  RH  046%=      5-min Rain = 0
KPD2 120252Z 03004KT 01/M10 A3028 RMK A01 T00091096  RH  045%=      5-min Rain = 0
KPD2 120253Z 03005KT 01/M10 A3028 RMK A01 T00111096  RH  045%=      5-min Rain = 0
KPD2 120254Z 03004KT 02/M09 A3028 RMK A01 T00151094  RH  044%=      5-min Rain = 0
KPD2 120255Z 02004KT 02/M09 A3028 RMK A01 T00171094  RH  043%=      5-min Rain = 0
KPD2 120256Z 02001KT 02/M10 A3028 RMK A01 T00181096  RH  043%=      5-min Rain = 0
KPD2 120257Z 14001KT 01/M10 A3028 RMK A01 T00141102  RH  042%=      5-min Rain = 0
KPD2 120258Z 19001KT 01/M11 A3028 RMK A01 T00071107  RH  042%=      5-min Rain = 0
KPD2 120259Z 21001KT 00/M11 A3028 RMK A01 T00021108  RH  043%=      5-min Rain = 0
KPD2 120300Z 22000KT M00/M11 A3028 RMK A01 T10031108  RH  045%=      5-min Rain = 0
KPD2 120301Z 12001KT M01/M11 A3028 RMK A01 T10061108  RH  046%=      5-min Rain = 0
KPD2 120302Z 10002KT M01/M11 A3028 RMK A01 T10081107  RH  047%=      5-min Rain = 0
KPD2 120303Z 12002KT M01/M11 A3028 RMK A01 T10091105  RH  048%=      5-min Rain = 0
KPD2 120304Z 13002KT M01/M11 A3028 RMK A01 T10091105  RH  048%=      5-min Rain = 0
KPD2 120305Z 20001KT M01/M11 A3028 RMK A01 T10091105  RH  048%=      5-min Rain = 0
KPD2 120306Z 24001KT M01/M10 A3028 RMK A01 T10091104  RH  048%=      5-min Rain = 0
KPD2 120307Z 22001KT M01/M10 A3028 RMK A01 T10081104  RH  048%=      5-min Rain = 0
KPD2 120308Z 22001KT M01/M10 A3027 RMK A01 T10091104  RH  048%=      5-min Rain = 0
KPD2 120309Z 21001KT M01/M10 A3027 RMK A01 T10091103  RH  049%=      5-min Rain = 0
KPD2 120310Z 20002KT M01/M10 A3027 RMK A01 T10081103  RH  049%=      5-min Rain = 0
KPD2 120311Z 21003KT M01/M10 A3028 RMK A01 T10081102  RH  049%=      5-min Rain = 0
KPD2 120312Z 21003KT M01/M10 A3028 RMK A01 T10071102  RH  049%=      5-min Rain = 0
KPD2 120313Z 22003KT M01/M10 A3028 RMK A01 T10071102  RH  049%=      5-min Rain = 0
KPD2 120314Z 23002KT M01/M11 A3028 RMK A01 T10091105  RH  048%=      5-min Rain = 0
KPD2 120315Z 23002KT M01/M11 A3028 RMK A01 T10121110  RH  048%=      5-min Rain = 0
KPD2 120316Z 14001KT M02/M11 A3028 RMK A01 T10151110  RH  048%=      5-min Rain = 0
KPD2 120317Z 11003KT M02/M11 A3028 RMK A01 T10171108  RH  050%=      5-min Rain = 0
KPD2 120318Z 14002KT M02/M11 A3028 RMK A01 T10171106  RH  051%=      5-min Rain = 0
KPD2 120319Z 14002KT M02/M11 A3028 RMK A01 T10171105  RH  051%=      5-min Rain = 0
KPD2 120320Z 15001KT M02/M11 A3028 RMK A01 T10161105  RH  051%=      5-min Rain = 0
KPD2 120321Z 15000KT M02/M10 A3028 RMK A01 T10151103  RH  051%=      5-min Rain = 0
KPD2 120322Z 00000KT M01/M10 A3028 RMK A01 T10141103  RH  051%=      5-min Rain = 0
KPD2 120323Z 00000KT M01/M10 A3028 RMK A01 T10131103  RH  050%=      5-min Rain = 0
KPD2 120324Z 00000KT M01/M10 A3028 RMK A01 T10131103  RH  050%=      5-min Rain = 0
KPD2 120325Z 13001KT M01/M10 A3028 RMK A01 T10121103  RH  050%=      5-min Rain = 0
KPD2 120326Z 12001KT M01/M10 A3028 RMK A01 T10101102  RH  050%=      5-min Rain = 0
KPD2 120327Z 12000KT M01/M10 A3028 RMK A01 T10101103  RH  049%=      5-min Rain = 0
KPD2 120328Z 12000KT M01/M10 A3028 RMK A01 T10101104  RH  049%=      5-min Rain = 0
KPD2 120329Z 00000KT M01/M10 A3028 RMK A01 T10111104  RH  049%=      5-min Rain = 0
KPD2 120330Z 20001KT M01/M11 A3028 RMK A01 T10121106  RH  049%=      5-min Rain = 0
KPD2 120331Z 23002KT M02/M11 A3028 RMK A01 T10151109  RH  049%=      5-min Rain = 0
KPD2 120332Z 24003KT M02/M11 A3028 RMK A01 T10181110  RH  049%=      5-min Rain = 0
KPD2 120333Z 24003KT M02/M11 A3028 RMK A01 T10201109  RH  050%=      5-min Rain = 0
KPD2 120334Z 23002KT M02/M11 A3029 RMK A01 T10221110  RH  051%=      5-min Rain = 0
KPD2 120335Z 18001KT M02/M11 A3029 RMK A01 T10241110  RH  052%=      5-min Rain = 0
KPD2 120336Z 15000KT M03/M11 A3029 RMK A01 T10261110  RH  052%=      5-min Rain = 0
KPD2 120337Z 15000KT M03/M11 A3029 RMK A01 T10261109  RH  053%=      5-min Rain = 0
KPD2 120338Z 15000KT M03/M11 A3028 RMK A01 T10261108  RH  053%=      5-min Rain = 0
KPD2 120339Z 11001KT M03/M11 A3028 RMK A01 T10261108  RH  053%=      5-min Rain = 0
KPD2 120340Z 09001KT M03/M11 A3028 RMK A01 T10261107  RH  054%=      5-min Rain = 0
KPD2 120341Z 09000KT M03/M11 A3028 RMK A01 T10261106  RH  054%=      5-min Rain = 0
KPD2 120342Z 09000KT M03/M11 A3028 RMK A01 T10251106  RH  054%=      5-min Rain = 0
KPD2 120343Z 00000KT M03/M11 A3028 RMK A01 T10251106  RH  054%=      5-min Rain = 0
KPD2 120344Z 00000KT M02/M11 A3028 RMK A01 T10241105  RH  054%=      5-min Rain = 0
KPD2 120345Z 12000KT M02/M11 A3029 RMK A01 T10231107  RH  053%=      5-min Rain = 0
KPD2 120346Z 19001KT M02/M11 A3029 RMK A01 T10241111  RH  052%=      5-min Rain = 0
KPD2 120347Z 20001KT M03/M11 A3029 RMK A01 T10261111  RH  052%=      5-min Rain = 0
KPD2 120348Z 21002KT M03/M11 A3029 RMK A01 T10271111  RH  052%=      5-min Rain = 0
KPD2 120349Z 20001KT M03/M11 A3029 RMK A01 T10271110  RH  053%=      5-min Rain = 0
KPD2 120350Z 20001KT M03/M11 A3029 RMK A01 T10281110  RH  053%=      5-min Rain = 0
KPD2 120351Z 20001KT M03/M11 A3029 RMK A01 T10291109  RH  054%=      5-min Rain = 0
KPD2 120352Z 16001KT M03/M11 A3029 RMK A01 T10291109  RH  054%=      5-min Rain = 0
KPD2 120353Z 15001KT M03/M11 A3029 RMK A01 T10291109  RH  054%=      5-min Rain = 0
KPD2 120354Z 15001KT M03/M11 A3029 RMK A01 T10291110  RH  054%=      5-min Rain = 0
KPD2 120355Z 15001KT M03/M11 A3029 RMK A01 T10301111  RH  054%=      5-min Rain = 0
KPD2 120356Z 15001KT M03/M11 A3029 RMK A01 T10311111  RH  054%=      5-min Rain = 0
KPD2 120357Z 15001KT M03/M11 A3029 RMK A01 T10311110  RH  054%=      5-min Rain = 0
KPD2 120358Z 15000KT M03/M11 A3029 RMK A01 T10311110  RH  054%=      5-min Rain = 0
KPD2 120359Z 00000KT M03/M11 A3029 RMK A01 T10311111  RH  054%=      5-min Rain = 0
KPD2 120400Z 00000KT M03/M11 A3029 RMK A01 T10311111  RH  054%=      5-min Rain = 0
KPD2 120401Z 00000KT M03/M11 A3029 RMK A01 T10331114  RH  054%=      5-min Rain = 0
KPD2 120402Z 15000KT M03/M12 A3029 RMK A01 T10341116  RH  053%=      5-min Rain = 0
KPD2 120403Z 13001KT M04/M11 A3029 RMK A01 T10351113  RH  055%=      5-min Rain = 0
KPD2 120404Z 00000KT M04/M11 A3029 RMK A01 T10351110  RH  056%=      5-min Rain = 0
KPD2 120405Z 00000KT M03/M11 A3029 RMK A01 T10341109  RH  056%=      5-min Rain = 0
KPD2 120406Z 00000KT M03/M11 A3029 RMK A01 T10341109  RH  056%=      5-min Rain = 0
KPD2 120407Z 00000KT M03/M11 A3029 RMK A01 T10341109  RH  056%=      5-min Rain = 0
KPD2 120408Z 00000KT M03/M11 A3029 RMK A01 T10341108  RH  056%=      5-min Rain = 0
KPD2 120409Z 00000KT M03/M11 A3029 RMK A01 T10341108  RH  056%=      5-min Rain = 0
KPD2 120410Z 00000KT M03/M11 A3029 RMK A01 T10341107  RH  057%=      5-min Rain = 0
KPD2 120411Z 00000KT M03/M11 A3029 RMK A01 T10331105  RH  057%=      5-min Rain = 0
KPD2 120412Z 00000KT M03/M11 A3029 RMK A01 T10311105  RH  057%=      5-min Rain = 0
KPD2 120413Z 00000KT M03/M10 A3029 RMK A01 T10301104  RH  057%=      5-min Rain = 0
KPD2 120414Z 05001KT M03/M10 A3029 RMK A01 T10291104  RH  056%=      5-min Rain = 0
KPD2 120415Z 05001KT M03/M10 A3029 RMK A01 T10261103  RH  056%=      5-min Rain = 0
KPD2 120416Z 05001KT M03/M10 A3029 RMK A01 T10251103  RH  055%=      5-min Rain = 0
KPD2 120417Z 01002KT M03/M11 A3029 RMK A01 T10251105  RH  054%=      5-min Rain = 0
KPD2 120418Z 25003KT M03/M11 A3029 RMK A01 T10261109  RH  053%=      5-min Rain = 0
KPD2 120419Z 26003KT M03/M11 A3029 RMK A01 T10281111  RH  053%=      5-min Rain = 0
KPD2 120420Z 30002KT M03/M11 A3029 RMK A01 T10301112  RH  053%=      5-min Rain = 0
KPD2 120421Z 35002KT M03/M11 A3029 RMK A01 T10311112  RH  054%=      5-min Rain = 0
KPD2 120422Z 35002KT M03/M11 A3029 RMK A01 T10331112  RH  055%=      5-min Rain = 0
KPD2 120423Z 36002KT M03/M11 A3029 RMK A01 T10341111  RH  055%=      5-min Rain = 0
KPD2 120424Z 34002KT M04/M11 A3029 RMK A01 T10351111  RH  056%=      5-min Rain = 0
KPD2 120425Z 34002KT M04/M11 A3029 RMK A01 T10351111  RH  056%=      5-min Rain = 0
KPD2 120426Z 34001KT M04/M11 A3029 RMK A01 T10351111  RH  056%=      5-min Rain = 0
KPD2 120427Z 35001KT M04/M11 A3029 RMK A01 T10351111  RH  056%=      5-min Rain = 0
KPD2 120428Z 35001KT M04/M11 A3029 RMK A01 T10361110  RH  056%=      5-min Rain = 0
KPD2 120429Z 35001KT M04/M11 A3029 RMK A01 T10361109  RH  057%=      5-min Rain = 0
KPD2 120430Z 35001KT M04/M11 A3029 RMK A01 T10361109  RH  057%=      5-min Rain = 0
KPD2 120431Z 35000KT M04/M11 A3029 RMK A01 T10361109  RH  057%=      5-min Rain = 0
KPD2 120432Z 28000KT M04/M11 A3029 RMK A01 T10371112  RH  056%=      5-min Rain = 0
KPD2 120433Z 28002KT M04/M11 A3029 RMK A01 T10381114  RH  055%=      5-min Rain = 0
KPD2 120434Z 28002KT M04/M12 A3029 RMK A01 T10391115  RH  056%=      5-min Rain = 0
KPD2 120435Z 28001KT M04/M12 A3029 RMK A01 T10401115  RH  056%=      5-min Rain = 0
KPD2 120436Z 28001KT M04/M12 A3029 RMK A01 T10411115  RH  057%=      5-min Rain = 0
KPD2 120437Z 28000KT M04/M12 A3029 RMK A01 T10421115  RH  057%=      5-min Rain = 0
KPD2 120438Z 28001KT M04/M11 A3029 RMK A01 T10421114  RH  057%=      5-min Rain = 0
KPD2 120439Z 28001KT M04/M11 A3029 RMK A01 T10431114  RH  057%=      5-min Rain = 0
KPD2 120440Z 28001KT M04/M11 A3029 RMK A01 T10431114  RH  058%=      5-min Rain = 0
KPD2 120441Z 29001KT M04/M11 A3029 RMK A01 T10431114  RH  058%=      5-min Rain = 0
KPD2 120442Z 29001KT M04/M11 A3029 RMK A01 T10441114  RH  058%=      5-min Rain = 0
KPD2 120443Z 30001KT M04/M11 A3029 RMK A01 T10441114  RH  058%=      5-min Rain = 0
KPD2 120444Z 31002KT M04/M11 A3029 RMK A01 T10441113  RH  058%=      5-min Rain = 0
KPD2 120445Z 31001KT M05/M11 A3029 RMK A01 T10451114  RH  058%=      5-min Rain = 0
KPD2 120446Z 31001KT M05/M11 A3029 RMK A01 T10451114  RH  058%=      5-min Rain = 0
KPD2 120447Z 30002KT M05/M11 A3029 RMK A01 T10451114  RH  059%=      5-min Rain = 0
KPD2 120448Z 28002KT M05/M11 A303 RMK A01 T10451114  RH  059%=      5-min Rain = 0
KPD2 120449Z 27002KT M05/M12 A303 RMK A01 T10451115  RH  058%=      5-min Rain = 0
KPD2 120450Z 28002KT M05/M12 A303 RMK A01 T10451116  RH  058%=      5-min Rain = 0
KPD2 120451Z 30002KT M05/M12 A303 RMK A01 T10461116  RH  058%=      5-min Rain = 0
KPD2 120452Z 33001KT M05/M11 A303 RMK A01 T10461114  RH  059%=      5-min Rain = 0
KPD2 120453Z 32002KT M05/M11 A303 RMK A01 T10451113  RH  059%=      5-min Rain = 0
KPD2 120454Z 32003KT M05/M11 A3029 RMK A01 T10451112  RH  059%=      5-min Rain = 0
KPD2 120455Z 34002KT M04/M11 A3029 RMK A01 T10441112  RH  059%=      5-min Rain = 0
KPD2 120456Z 35002KT M04/M11 A3029 RMK A01 T10441112  RH  059%=      5-min Rain = 0
KPD2 120457Z 33002KT M04/M11 A3029 RMK A01 T10431112  RH  059%=      5-min Rain = 0
KPD2 120458Z 33002KT M04/M11 A3029 RMK A01 T10431112  RH  059%=      5-min Rain = 0
KPD2 120459Z 32002KT M04/M11 A3029 RMK A01 T10431112  RH  059%=      5-min Rain = 0
KPD2 120500Z 32001KT M04/M11 A3029 RMK A01 T10411110  RH  059%=      5-min Rain = 0
KPD2 120501Z 32001KT M04/M11 A3029 RMK A01 T10391109  RH  058%=      5-min Rain = 0
KPD2 120502Z 32001KT M04/M11 A3029 RMK A01 T10391111  RH  057%=      5-min Rain = 0
KPD2 120503Z 28001KT M04/M11 A3029 RMK A01 T10401114  RH  057%=      5-min Rain = 0
KPD2 120504Z 28001KT M04/M12 A3029 RMK A01 T10421115  RH  057%=      5-min Rain = 0
KPD2 120505Z 27001KT M04/M12 A3029 RMK A01 T10431116  RH  057%=      5-min Rain = 0
KPD2 120506Z 27001KT M04/M12 A3029 RMK A01 T10431115  RH  057%=      5-min Rain = 0
KPD2 120507Z 26002KT M04/M12 A3029 RMK A01 T10441116  RH  057%=      5-min Rain = 0
KPD2 120508Z 26003KT M05/M12 A3029 RMK A01 T10451116  RH  058%=      5-min Rain = 0
KPD2 120509Z 25003KT M05/M12 A3029 RMK A01 T10461116  RH  058%=      5-min Rain = 0
KPD2 120510Z 24002KT M05/M12 A3029 RMK A01 T10461115  RH  059%=      5-min Rain = 0
KPD2 120511Z 24001KT M05/M12 A3029 RMK A01 T10471115  RH  059%=      5-min Rain = 0
KPD2 120512Z 30000KT M05/M12 A3029 RMK A01 T10471115  RH  059%=      5-min Rain = 0
KPD2 120513Z 36001KT M05/M12 A3029 RMK A01 T10471115  RH  059%=      5-min Rain = 0
KPD2 120514Z 35001KT M05/M11 A3029 RMK A01 T10461113  RH  060%=      5-min Rain = 0
KPD2 120515Z 35002KT M05/M11 A3029 RMK A01 T10451111  RH  060%=      5-min Rain = 0
KPD2 120516Z 34002KT M04/M11 A3029 RMK A01 T10441112  RH  059%=      5-min Rain = 0
KPD2 120517Z 35002KT M04/M11 A3029 RMK A01 T10441112  RH  059%=      5-min Rain = 0
KPD2 120518Z 33001KT M04/M11 A3028 RMK A01 T10441112  RH  059%=      5-min Rain = 0
KPD2 120519Z 34001KT M04/M11 A3028 RMK A01 T10441112  RH  059%=      5-min Rain = 0
KPD2 120520Z 01001KT M04/M11 A3028 RMK A01 T10441111  RH  059%=      5-min Rain = 0
KPD2 120521Z 00000KT M04/M11 A3028 RMK A01 T10431110  RH  059%=      5-min Rain = 0
KPD2 120522Z 00000KT M04/M11 A3028 RMK A01 T10421110  RH  059%=      5-min Rain = 0
KPD2 120523Z 00000KT M04/M11 A3028 RMK A01 T10421111  RH  059%=      5-min Rain = 0
KPD2 120524Z 00000KT M04/M11 A3028 RMK A01 T10421112  RH  059%=      5-min Rain = 0
KPD2 120525Z 27001KT M04/M11 A3029 RMK A01 T10431112  RH  058%=      5-min Rain = 0
KPD2 120526Z 27001KT M04/M11 A3029 RMK A01 T10431113  RH  058%=      5-min Rain = 0
KPD2 120527Z 29001KT M04/M11 A3028 RMK A01 T10441113  RH  058%=      5-min Rain = 0
KPD2 120528Z 32002KT M05/M11 A3028 RMK A01 T10451114  RH  058%=      5-min Rain = 0
KPD2 120529Z 34002KT M05/M11 A3028 RMK A01 T10451114  RH  059%=      5-min Rain = 0
KPD2 120530Z 33002KT M05/M11 A3028 RMK A01 T10461114  RH  059%=      5-min Rain = 0
KPD2 120531Z 36002KT M05/M11 A3028 RMK A01 T10461113  RH  059%=      5-min Rain = 0
KPD2 120532Z 33002KT M05/M11 A3028 RMK A01 T10451112  RH  060%=      5-min Rain = 0
KPD2 120533Z 34002KT M04/M11 A3028 RMK A01 T10431109  RH  060%=      5-min Rain = 0
KPD2 120534Z 35002KT M04/M11 A3028 RMK A01 T10421108  RH  060%=      5-min Rain = 0
KPD2 120535Z 33002KT M04/M11 A3028 RMK A01 T10411109  RH  059%=      5-min Rain = 0
KPD2 120536Z 32002KT M04/M11 A3028 RMK A01 T10411109  RH  059%=      5-min Rain = 0
KPD2 120537Z 31002KT M04/M11 A3028 RMK A01 T10401108  RH  059%=      5-min Rain = 0
KPD2 120538Z 31001KT M04/M11 A3028 RMK A01 T10401109  RH  059%=      5-min Rain = 0
KPD2 120539Z 30002KT M04/M11 A3028 RMK A01 T10401109  RH  058%=      5-min Rain = 0
KPD2 120540Z 27002KT M04/M11 A3028 RMK A01 T10391108  RH  058%=      5-min Rain = 0
KPD2 120541Z 26002KT M04/M11 A3028 RMK A01 T10381109  RH  058%=      5-min Rain = 0
KPD2 120542Z 26002KT M04/M11 A3028 RMK A01 T10391110  RH  057%=      5-min Rain = 0
KPD2 120543Z 25002KT M04/M11 A3028 RMK A01 T10391111  RH  058%=      5-min Rain = 0
KPD2 120544Z 25003KT M04/M11 A3028 RMK A01 T10401111  RH  058%=      5-min Rain = 0
KPD2 120545Z 25002KT M04/M11 A3029 RMK A01 T10401111  RH  058%=      5-min Rain = 0
KPD2 120546Z 25001KT M04/M11 A3028 RMK A01 T10411112  RH  058%=      5-min Rain = 0
KPD2 120547Z 28000KT M04/M11 A3028 RMK A01 T10421113  RH  058%=      5-min Rain = 0
KPD2 120548Z 28000KT M04/M11 A3028 RMK A01 T10431112  RH  058%=      5-min Rain = 0
KPD2 120549Z 29001KT M04/M11 A3028 RMK A01 T10431112  RH  059%=      5-min Rain = 0
KPD2 120550Z 32001KT M04/M11 A3028 RMK A01 T10441113  RH  059%=      5-min Rain = 0
KPD2 120551Z 34001KT M04/M11 A3028 RMK A01 T10441113  RH  059%=      5-min Rain = 0
KPD2 120552Z 29002KT M05/M11 A3028 RMK A01 T10451114  RH  059%=      5-min Rain = 0
KPD2 120553Z 29002KT M05/M11 A3028 RMK A01 T10461114  RH  059%=      5-min Rain = 0
KPD2 120554Z 34001KT M05/M11 A3028 RMK A01 T10471114  RH  059%=      5-min Rain = 0
KPD2 120555Z 31001KT M05/M11 A3028 RMK A01 T10481114  RH  060%=      5-min Rain = 0
KPD2 120556Z 34002KT M05/M12 A3028 RMK A01 T10481115  RH  060%=      5-min Rain = 0
KPD2 120557Z 34002KT M05/M12 A3028 RMK A01 T10491115  RH  060%=      5-min Rain = 0
KPD2 120558Z 34002KT M05/M11 A3028 RMK A01 T10491114  RH  060%=      5-min Rain = 0
KPD2 120559Z 35002KT M05/M11 A3028 RMK A01 T10501114  RH  061%=      5-min Rain = 0

Page generated in 0.0334 seconds.